<?xml version="1.0" encoding="UTF-8" standalone="no" ?><gpx xmlns="http://www.topografix.com/GPX/1/1" xmlns:gpxx="http://www.garmin.com/xmlschemas/GpxExtensions/v3" xmlns:gpxtpx="http://www.garmin.com/xmlschemas/TrackPointExtension/v1" creator="Foretrex 301" version="1.1" xmlns:xsi="http://www.w3.org/2001/XMLSchema-instance" xsi:schemaLocation="http://www.topografix.com/GPX/1/1 http://www.topografix.com/GPX/1/1/gpx.xsd http://www.garmin.com/xmlschemas/GpxExtensions/v3 http://www.garmin.com/xmlschemas/GpxExtensions/v3/GpxExtensionsv3.xsd"><metadata><link href="http://www.garmin.com"><text>Garmin International</text></link><time>2011-03-23T15:03:09Z</time></metadata><trk><name>ACTIVE LOG: 23 MAR 2011 09:55</name><trkseg><trkpt lat="51.966787" lon="-1.923084"><ele>126.55</ele><time>2011-03-23T09:55:48Z</time></trkpt><trkpt lat="51.966778" lon="-1.923087"><ele>126.55</ele><time>2011-03-23T09:58:33Z</time></trkpt><trkpt lat="51.966763" lon="-1.923093"><ele>127.51</ele><time>2011-03-23T10:01:24Z</time></trkpt><trkpt lat="51.966794" lon="-1.923263"><ele>129.43</ele><time>2011-03-23T10:01:37Z</time></trkpt><trkpt lat="51.966910" lon="-1.923332"><ele>129.43</ele><time>2011-03-23T10:01:48Z</time></trkpt><trkpt lat="51.967057" lon="-1.923377"><ele>129.43</ele><time>2011-03-23T10:02:00Z</time></trkpt><trkpt lat="51.967160" lon="-1.923395"><ele>130.40</ele><time>2011-03-23T10:02:09Z</time></trkpt><trkpt lat="51.967261" lon="-1.923397"><ele>128.47</ele><time>2011-03-23T10:02:18Z</time></trkpt><trkpt lat="51.967396" lon="-1.923397"><ele>125.59</ele><time>2011-03-23T10:02:31Z</time></trkpt><trkpt lat="51.967430" lon="-1.923403"><ele>126.07</ele><time>2011-03-23T10:02:34Z</time></trkpt><trkpt lat="51.967523" lon="-1.923418"><ele>127.03</ele><time>2011-03-23T10:02:43Z</time></trkpt><trkpt lat="51.967598" lon="-1.923436"><ele>127.03</ele><time>2011-03-23T10:02:50Z</time></trkpt><trkpt lat="51.967737" lon="-1.923475"><ele>125.59</ele><time>2011-03-23T10:03:02Z</time></trkpt><trkpt lat="51.967853" lon="-1.923505"><ele>126.07</ele><time>2011-03-23T10:03:14Z</time></trkpt><trkpt lat="51.967960" lon="-1.923541"><ele>130.88</ele><time>2011-03-23T10:03:26Z</time></trkpt><trkpt lat="51.968042" lon="-1.923582"><ele>133.76</ele><time>2011-03-23T10:03:35Z</time></trkpt><trkpt lat="51.968151" lon="-1.923595"><ele>131.84</ele><time>2011-03-23T10:03:45Z</time></trkpt><trkpt lat="51.968265" lon="-1.923614"><ele>130.40</ele><time>2011-03-23T10:03:55Z</time></trkpt><trkpt lat="51.968353" lon="-1.923636"><ele>130.40</ele><time>2011-03-23T10:04:05Z</time></trkpt><trkpt lat="51.968478" lon="-1.923688"><ele>133.76</ele><time>2011-03-23T10:04:19Z</time></trkpt><trkpt lat="51.968512" lon="-1.923633"><ele>135.68</ele><time>2011-03-23T10:04:27Z</time></trkpt><trkpt lat="51.968548" lon="-1.923584"><ele>136.16</ele><time>2011-03-23T10:04:34Z</time></trkpt><trkpt lat="51.968530" lon="-1.923478"><ele>135.68</ele><time>2011-03-23T10:04:53Z</time></trkpt><trkpt lat="51.968506" lon="-1.923352"><ele>135.68</ele><time>2011-03-23T10:05:02Z</time></trkpt><trkpt lat="51.968449" lon="-1.923237"><ele>137.61</ele><time>2011-03-23T10:05:12Z</time></trkpt><trkpt lat="51.968371" lon="-1.923146"><ele>139.53</ele><time>2011-03-23T10:05:24Z</time></trkpt><trkpt lat="51.968279" lon="-1.923061"><ele>141.93</ele><time>2011-03-23T10:05:35Z</time></trkpt><trkpt lat="51.968207" lon="-1.923025"><ele>143.85</ele><time>2011-03-23T10:05:45Z</time></trkpt><trkpt lat="51.968096" lon="-1.922976"><ele>148.18</ele><time>2011-03-23T10:05:56Z</time></trkpt><trkpt lat="51.968053" lon="-1.922948"><ele>147.70</ele><time>2011-03-23T10:06:04Z</time></trkpt><trkpt lat="51.967998" lon="-1.922784"><ele>147.22</ele><time>2011-03-23T10:06:16Z</time></trkpt><trkpt lat="51.967967" lon="-1.922698"><ele>144.34</ele><time>2011-03-23T10:06:28Z</time></trkpt><trkpt lat="51.967957" lon="-1.922583"><ele>142.89</ele><time>2011-03-23T10:06:36Z</time></trkpt><trkpt lat="51.967923" lon="-1.922445"><ele>143.85</ele><time>2011-03-23T10:06:49Z</time></trkpt><trkpt lat="51.967915" lon="-1.922309"><ele>144.82</ele><time>2011-03-23T10:07:01Z</time></trkpt><trkpt lat="51.967931" lon="-1.922182"><ele>144.82</ele><time>2011-03-23T10:07:11Z</time></trkpt><trkpt lat="51.967948" lon="-1.922044"><ele>143.37</ele><time>2011-03-23T10:07:24Z</time></trkpt><trkpt lat="51.967934" lon="-1.921967"><ele>144.34</ele><time>2011-03-23T10:07:34Z</time></trkpt><trkpt lat="51.967947" lon="-1.921862"><ele>145.78</ele><time>2011-03-23T10:07:45Z</time></trkpt><trkpt lat="51.967936" lon="-1.921720"><ele>151.54</ele><time>2011-03-23T10:07:58Z</time></trkpt><trkpt lat="51.967925" lon="-1.921567"><ele>156.35</ele><time>2011-03-23T10:08:08Z</time></trkpt><trkpt lat="51.967940" lon="-1.921419"><ele>159.24</ele><time>2011-03-23T10:08:19Z</time></trkpt><trkpt lat="51.967957" lon="-1.921167"><ele>162.60</ele><time>2011-03-23T10:08:30Z</time></trkpt><trkpt lat="51.967895" lon="-1.921015"><ele>162.12</ele><time>2011-03-23T10:08:39Z</time></trkpt><trkpt lat="51.967792" lon="-1.920908"><ele>162.12</ele><time>2011-03-23T10:08:50Z</time></trkpt><trkpt lat="51.967727" lon="-1.920841"><ele>158.75</ele><time>2011-03-23T10:09:01Z</time></trkpt><trkpt lat="51.967649" lon="-1.920728"><ele>158.27</ele><time>2011-03-23T10:09:11Z</time></trkpt><trkpt lat="51.967579" lon="-1.920671"><ele>156.35</ele><time>2011-03-23T10:09:21Z</time></trkpt><trkpt lat="51.967545" lon="-1.920622"><ele>154.91</ele><time>2011-03-23T10:09:30Z</time></trkpt><trkpt lat="51.967492" lon="-1.920553"><ele>156.35</ele><time>2011-03-23T10:09:44Z</time></trkpt><trkpt lat="51.967441" lon="-1.920486"><ele>157.31</ele><time>2011-03-23T10:09:55Z</time></trkpt><trkpt lat="51.967395" lon="-1.920379"><ele>160.20</ele><time>2011-03-23T10:10:10Z</time></trkpt><trkpt lat="51.967358" lon="-1.920300"><ele>160.68</ele><time>2011-03-23T10:10:21Z</time></trkpt><trkpt lat="51.967336" lon="-1.920207"><ele>160.68</ele><time>2011-03-23T10:10:32Z</time></trkpt><trkpt lat="51.967315" lon="-1.920085"><ele>161.16</ele><time>2011-03-23T10:10:43Z</time></trkpt><trkpt lat="51.967288" lon="-1.920000"><ele>163.56</ele><time>2011-03-23T10:10:52Z</time></trkpt><trkpt lat="51.967247" lon="-1.919835"><ele>165.00</ele><time>2011-03-23T10:11:03Z</time></trkpt><trkpt lat="51.967242" lon="-1.919743"><ele>165.96</ele><time>2011-03-23T10:11:12Z</time></trkpt><trkpt lat="51.967191" lon="-1.919638"><ele>170.29</ele><time>2011-03-23T10:11:25Z</time></trkpt><trkpt lat="51.967147" lon="-1.919520"><ele>173.66</ele><time>2011-03-23T10:11:36Z</time></trkpt><trkpt lat="51.967086" lon="-1.919443"><ele>175.10</ele><time>2011-03-23T10:11:46Z</time></trkpt><trkpt lat="51.967007" lon="-1.919372"><ele>177.98</ele><time>2011-03-23T10:11:57Z</time></trkpt><trkpt lat="51.966897" lon="-1.919265"><ele>181.83</ele><time>2011-03-23T10:12:10Z</time></trkpt><trkpt lat="51.966780" lon="-1.919202"><ele>183.27</ele><time>2011-03-23T10:12:24Z</time></trkpt><trkpt lat="51.966710" lon="-1.919158"><ele>182.31</ele><time>2011-03-23T10:12:34Z</time></trkpt><trkpt lat="51.966663" lon="-1.919118"><ele>183.27</ele><time>2011-03-23T10:12:43Z</time></trkpt><trkpt lat="51.966545" lon="-1.919052"><ele>183.75</ele><time>2011-03-23T10:12:57Z</time></trkpt><trkpt lat="51.966485" lon="-1.918998"><ele>185.19</ele><time>2011-03-23T10:13:06Z</time></trkpt><trkpt lat="51.966412" lon="-1.918954"><ele>184.71</ele><time>2011-03-23T10:13:17Z</time></trkpt><trkpt lat="51.966368" lon="-1.918900"><ele>182.79</ele><time>2011-03-23T10:13:27Z</time></trkpt><trkpt lat="51.966282" lon="-1.918846"><ele>183.27</ele><time>2011-03-23T10:13:38Z</time></trkpt><trkpt lat="51.966205" lon="-1.918792"><ele>182.79</ele><time>2011-03-23T10:13:48Z</time></trkpt><trkpt lat="51.966164" lon="-1.918774"><ele>182.79</ele><time>2011-03-23T10:13:56Z</time></trkpt><trkpt lat="51.966079" lon="-1.918740"><ele>183.27</ele><time>2011-03-23T10:14:06Z</time></trkpt><trkpt lat="51.965989" lon="-1.918723"><ele>185.67</ele><time>2011-03-23T10:14:20Z</time></trkpt><trkpt lat="51.965941" lon="-1.918695"><ele>187.11</ele><time>2011-03-23T10:14:30Z</time></trkpt><trkpt lat="51.965808" lon="-1.918688"><ele>188.08</ele><time>2011-03-23T10:14:42Z</time></trkpt><trkpt lat="51.965709" lon="-1.918678"><ele>187.11</ele><time>2011-03-23T10:14:54Z</time></trkpt><trkpt lat="51.965575" lon="-1.918650"><ele>190.96</ele><time>2011-03-23T10:15:17Z</time></trkpt><trkpt lat="51.965486" lon="-1.918631"><ele>192.88</ele><time>2011-03-23T10:15:27Z</time></trkpt><trkpt lat="51.965399" lon="-1.918588"><ele>191.44</ele><time>2011-03-23T10:15:37Z</time></trkpt><trkpt lat="51.965328" lon="-1.918549"><ele>192.40</ele><time>2011-03-23T10:15:47Z</time></trkpt><trkpt lat="51.965267" lon="-1.918442"><ele>193.36</ele><time>2011-03-23T10:15:58Z</time></trkpt><trkpt lat="51.965215" lon="-1.918382"><ele>195.28</ele><time>2011-03-23T10:16:08Z</time></trkpt><trkpt lat="51.965163" lon="-1.918342"><ele>196.25</ele><time>2011-03-23T10:16:16Z</time></trkpt><trkpt lat="51.965088" lon="-1.918316"><ele>196.73</ele><time>2011-03-23T10:16:26Z</time></trkpt><trkpt lat="51.965003" lon="-1.918229"><ele>199.61</ele><time>2011-03-23T10:16:40Z</time></trkpt><trkpt lat="51.964919" lon="-1.918179"><ele>203.94</ele><time>2011-03-23T10:16:52Z</time></trkpt><trkpt lat="51.964884" lon="-1.918132"><ele>203.46</ele><time>2011-03-23T10:17:01Z</time></trkpt><trkpt lat="51.964833" lon="-1.918003"><ele>203.94</ele><time>2011-03-23T10:17:11Z</time></trkpt><trkpt lat="51.964760" lon="-1.917921"><ele>205.86</ele><time>2011-03-23T10:17:21Z</time></trkpt><trkpt lat="51.964721" lon="-1.917875"><ele>207.30</ele><time>2011-03-23T10:17:29Z</time></trkpt><trkpt lat="51.964653" lon="-1.917806"><ele>210.67</ele><time>2011-03-23T10:17:41Z</time></trkpt><trkpt lat="51.964565" lon="-1.917733"><ele>210.19</ele><time>2011-03-23T10:17:54Z</time></trkpt><trkpt lat="51.964456" lon="-1.917647"><ele>209.22</ele><time>2011-03-23T10:18:04Z</time></trkpt><trkpt lat="51.964395" lon="-1.917533"><ele>205.86</ele><time>2011-03-23T10:18:14Z</time></trkpt><trkpt lat="51.964332" lon="-1.917427"><ele>203.46</ele><time>2011-03-23T10:18:24Z</time></trkpt><trkpt lat="51.964252" lon="-1.917340"><ele>202.98</ele><time>2011-03-23T10:18:33Z</time></trkpt><trkpt lat="51.964216" lon="-1.917277"><ele>202.98</ele><time>2011-03-23T10:18:44Z</time></trkpt><trkpt lat="51.964207" lon="-1.917262"><ele>204.42</ele><time>2011-03-23T10:18:47Z</time></trkpt><trkpt lat="51.964198" lon="-1.917192"><ele>204.42</ele><time>2011-03-23T10:18:53Z</time></trkpt><trkpt lat="51.964171" lon="-1.917129"><ele>207.30</ele><time>2011-03-23T10:19:03Z</time></trkpt><trkpt lat="51.964147" lon="-1.917077"><ele>207.78</ele><time>2011-03-23T10:19:11Z</time></trkpt><trkpt lat="51.964069" lon="-1.916940"><ele>208.74</ele><time>2011-03-23T10:19:23Z</time></trkpt><trkpt lat="51.964044" lon="-1.916887"><ele>209.70</ele><time>2011-03-23T10:19:31Z</time></trkpt><trkpt lat="51.963987" lon="-1.916815"><ele>210.19</ele><time>2011-03-23T10:19:42Z</time></trkpt><trkpt lat="51.963913" lon="-1.916705"><ele>211.63</ele><time>2011-03-23T10:19:55Z</time></trkpt><trkpt lat="51.963807" lon="-1.916544"><ele>211.15</ele><time>2011-03-23T10:20:14Z</time></trkpt><trkpt lat="51.963745" lon="-1.916417"><ele>208.74</ele><time>2011-03-23T10:20:27Z</time></trkpt><trkpt lat="51.963701" lon="-1.916328"><ele>209.22</ele><time>2011-03-23T10:20:37Z</time></trkpt><trkpt lat="51.963670" lon="-1.916239"><ele>209.22</ele><time>2011-03-23T10:20:46Z</time></trkpt><trkpt lat="51.963644" lon="-1.916174"><ele>210.67</ele><time>2011-03-23T10:20:56Z</time></trkpt><trkpt lat="51.963611" lon="-1.916099"><ele>213.55</ele><time>2011-03-23T10:21:06Z</time></trkpt><trkpt lat="51.963546" lon="-1.915990"><ele>213.07</ele><time>2011-03-23T10:21:16Z</time></trkpt><trkpt lat="51.963500" lon="-1.915915"><ele>210.67</ele><time>2011-03-23T10:21:25Z</time></trkpt><trkpt lat="51.963461" lon="-1.915813"><ele>209.70</ele><time>2011-03-23T10:21:33Z</time></trkpt><trkpt lat="51.963430" lon="-1.915731"><ele>211.63</ele><time>2011-03-23T10:21:42Z</time></trkpt><trkpt lat="51.963380" lon="-1.915667"><ele>212.59</ele><time>2011-03-23T10:21:54Z</time></trkpt><trkpt lat="51.963324" lon="-1.915589"><ele>212.11</ele><time>2011-03-23T10:22:06Z</time></trkpt><trkpt lat="51.963290" lon="-1.915577"><ele>212.11</ele><time>2011-03-23T10:22:20Z</time></trkpt><trkpt lat="51.963284" lon="-1.915574"><ele>211.63</ele><time>2011-03-23T10:22:39Z</time></trkpt><trkpt lat="51.963280" lon="-1.915570"><ele>211.63</ele><time>2011-03-23T10:22:57Z</time></trkpt><trkpt lat="51.963240" lon="-1.915497"><ele>211.15</ele><time>2011-03-23T10:23:13Z</time></trkpt><trkpt lat="51.963193" lon="-1.915411"><ele>210.67</ele><time>2011-03-23T10:23:24Z</time></trkpt><trkpt lat="51.963127" lon="-1.915306"><ele>212.11</ele><time>2011-03-23T10:23:36Z</time></trkpt><trkpt lat="51.963091" lon="-1.915259"><ele>211.15</ele><time>2011-03-23T10:23:50Z</time></trkpt><trkpt lat="51.963060" lon="-1.915239"><ele>210.67</ele><time>2011-03-23T10:24:16Z</time></trkpt><trkpt lat="51.963036" lon="-1.915202"><ele>209.70</ele><time>2011-03-23T10:24:29Z</time></trkpt><trkpt lat="51.963050" lon="-1.915196"><ele>208.74</ele><time>2011-03-23T10:24:36Z</time></trkpt><trkpt lat="51.963060" lon="-1.915189"><ele>209.70</ele><time>2011-03-23T10:24:46Z</time></trkpt><trkpt lat="51.963072" lon="-1.915151"><ele>208.74</ele><time>2011-03-23T10:24:53Z</time></trkpt><trkpt lat="51.963105" lon="-1.915095"><ele>209.70</ele><time>2011-03-23T10:25:03Z</time></trkpt><trkpt lat="51.963144" lon="-1.915063"><ele>210.67</ele><time>2011-03-23T10:25:14Z</time></trkpt><trkpt lat="51.963217" lon="-1.915020"><ele>211.15</ele><time>2011-03-23T10:25:27Z</time></trkpt><trkpt lat="51.963371" lon="-1.914917"><ele>214.03</ele><time>2011-03-23T10:25:51Z</time></trkpt><trkpt lat="51.963429" lon="-1.914847"><ele>214.99</ele><time>2011-03-23T10:26:04Z</time></trkpt><trkpt lat="51.963525" lon="-1.914777"><ele>215.47</ele><time>2011-03-23T10:26:18Z</time></trkpt><trkpt lat="51.963619" lon="-1.914680"><ele>215.47</ele><time>2011-03-23T10:26:32Z</time></trkpt><trkpt lat="51.963702" lon="-1.914584"><ele>214.99</ele><time>2011-03-23T10:26:44Z</time></trkpt><trkpt lat="51.963761" lon="-1.914546"><ele>214.51</ele><time>2011-03-23T10:26:54Z</time></trkpt><trkpt lat="51.963887" lon="-1.914414"><ele>215.95</ele><time>2011-03-23T10:27:13Z</time></trkpt><trkpt lat="51.963988" lon="-1.914322"><ele>214.99</ele><time>2011-03-23T10:27:28Z</time></trkpt><trkpt lat="51.964075" lon="-1.914252"><ele>214.51</ele><time>2011-03-23T10:27:40Z</time></trkpt><trkpt lat="51.964186" lon="-1.914150"><ele>216.43</ele><time>2011-03-23T10:27:57Z</time></trkpt><trkpt lat="51.964267" lon="-1.914077"><ele>219.32</ele><time>2011-03-23T10:28:10Z</time></trkpt><trkpt lat="51.964327" lon="-1.914043"><ele>221.24</ele><time>2011-03-23T10:28:24Z</time></trkpt><trkpt lat="51.964442" lon="-1.913953"><ele>223.16</ele><time>2011-03-23T10:28:41Z</time></trkpt><trkpt lat="51.964554" lon="-1.913868"><ele>224.12</ele><time>2011-03-23T10:28:57Z</time></trkpt><trkpt lat="51.964633" lon="-1.913793"><ele>223.64</ele><time>2011-03-23T10:29:09Z</time></trkpt><trkpt lat="51.964705" lon="-1.913749"><ele>224.61</ele><time>2011-03-23T10:29:19Z</time></trkpt><trkpt lat="51.964739" lon="-1.913717"><ele>224.61</ele><time>2011-03-23T10:29:37Z</time></trkpt><trkpt lat="51.964831" lon="-1.913672"><ele>226.05</ele><time>2011-03-23T10:29:48Z</time></trkpt><trkpt lat="51.964922" lon="-1.913597"><ele>226.05</ele><time>2011-03-23T10:30:01Z</time></trkpt><trkpt lat="51.964999" lon="-1.913551"><ele>227.01</ele><time>2011-03-23T10:30:11Z</time></trkpt><trkpt lat="51.965056" lon="-1.913492"><ele>227.01</ele><time>2011-03-23T10:30:21Z</time></trkpt><trkpt lat="51.965084" lon="-1.913451"><ele>227.97</ele><time>2011-03-23T10:30:31Z</time></trkpt><trkpt lat="51.965073" lon="-1.913423"><ele>228.93</ele><time>2011-03-23T10:30:39Z</time></trkpt><trkpt lat="51.965092" lon="-1.913405"><ele>228.93</ele><time>2011-03-23T10:30:43Z</time></trkpt><trkpt lat="51.965176" lon="-1.913342"><ele>227.49</ele><time>2011-03-23T10:30:53Z</time></trkpt><trkpt lat="51.965248" lon="-1.913270"><ele>227.97</ele><time>2011-03-23T10:31:01Z</time></trkpt><trkpt lat="51.965340" lon="-1.913197"><ele>229.41</ele><time>2011-03-23T10:31:14Z</time></trkpt><trkpt lat="51.965424" lon="-1.913125"><ele>231.33</ele><time>2011-03-23T10:31:25Z</time></trkpt><trkpt lat="51.965481" lon="-1.913007"><ele>230.85</ele><time>2011-03-23T10:31:38Z</time></trkpt><trkpt lat="51.965551" lon="-1.912877"><ele>229.89</ele><time>2011-03-23T10:31:51Z</time></trkpt><trkpt lat="51.965613" lon="-1.912750"><ele>229.41</ele><time>2011-03-23T10:32:03Z</time></trkpt><trkpt lat="51.965675" lon="-1.912684"><ele>231.81</ele><time>2011-03-23T10:32:14Z</time></trkpt><trkpt lat="51.965733" lon="-1.912624"><ele>233.74</ele><time>2011-03-23T10:32:25Z</time></trkpt><trkpt lat="51.965816" lon="-1.912527"><ele>233.74</ele><time>2011-03-23T10:32:38Z</time></trkpt><trkpt lat="51.965878" lon="-1.912453"><ele>234.22</ele><time>2011-03-23T10:32:47Z</time></trkpt><trkpt lat="51.965985" lon="-1.912357"><ele>235.18</ele><time>2011-03-23T10:33:01Z</time></trkpt><trkpt lat="51.966040" lon="-1.912300"><ele>235.18</ele><time>2011-03-23T10:33:09Z</time></trkpt><trkpt lat="51.966066" lon="-1.912256"><ele>235.66</ele><time>2011-03-23T10:33:16Z</time></trkpt><trkpt lat="51.966073" lon="-1.912260"><ele>234.22</ele><time>2011-03-23T10:33:29Z</time></trkpt><trkpt lat="51.966112" lon="-1.912196"><ele>233.74</ele><time>2011-03-23T10:33:40Z</time></trkpt><trkpt lat="51.966206" lon="-1.912119"><ele>233.26</ele><time>2011-03-23T10:33:53Z</time></trkpt><trkpt lat="51.966301" lon="-1.912060"><ele>231.81</ele><time>2011-03-23T10:34:05Z</time></trkpt><trkpt lat="51.966385" lon="-1.911999"><ele>233.74</ele><time>2011-03-23T10:34:17Z</time></trkpt><trkpt lat="51.966472" lon="-1.911930"><ele>235.66</ele><time>2011-03-23T10:34:27Z</time></trkpt><trkpt lat="51.966554" lon="-1.911863"><ele>236.62</ele><time>2011-03-23T10:34:41Z</time></trkpt><trkpt lat="51.966544" lon="-1.911888"><ele>237.58</ele><time>2011-03-23T10:34:48Z</time></trkpt><trkpt lat="51.966539" lon="-1.911868"><ele>237.10</ele><time>2011-03-23T10:34:56Z</time></trkpt><trkpt lat="51.966571" lon="-1.911836"><ele>237.10</ele><time>2011-03-23T10:35:13Z</time></trkpt><trkpt lat="51.966685" lon="-1.911738"><ele>237.10</ele><time>2011-03-23T10:35:29Z</time></trkpt><trkpt lat="51.966813" lon="-1.911631"><ele>236.14</ele><time>2011-03-23T10:35:46Z</time></trkpt><trkpt lat="51.966890" lon="-1.911562"><ele>234.22</ele><time>2011-03-23T10:35:55Z</time></trkpt><trkpt lat="51.966934" lon="-1.911519"><ele>234.22</ele><time>2011-03-23T10:36:04Z</time></trkpt><trkpt lat="51.967026" lon="-1.911429"><ele>232.78</ele><time>2011-03-23T10:36:15Z</time></trkpt><trkpt lat="51.967096" lon="-1.911358"><ele>232.78</ele><time>2011-03-23T10:36:24Z</time></trkpt><trkpt lat="51.967186" lon="-1.911269"><ele>235.66</ele><time>2011-03-23T10:36:37Z</time></trkpt><trkpt lat="51.967257" lon="-1.911192"><ele>237.10</ele><time>2011-03-23T10:36:48Z</time></trkpt><trkpt lat="51.967370" lon="-1.911091"><ele>238.06</ele><time>2011-03-23T10:37:03Z</time></trkpt><trkpt lat="51.967440" lon="-1.910994"><ele>239.99</ele><time>2011-03-23T10:37:15Z</time></trkpt><trkpt lat="51.967513" lon="-1.910925"><ele>240.47</ele><time>2011-03-23T10:37:29Z</time></trkpt><trkpt lat="51.967575" lon="-1.910839"><ele>239.99</ele><time>2011-03-23T10:37:40Z</time></trkpt><trkpt lat="51.967657" lon="-1.910712"><ele>242.39</ele><time>2011-03-23T10:37:55Z</time></trkpt><trkpt lat="51.967704" lon="-1.910654"><ele>240.95</ele><time>2011-03-23T10:38:03Z</time></trkpt><trkpt lat="51.967786" lon="-1.910559"><ele>236.14</ele><time>2011-03-23T10:38:16Z</time></trkpt><trkpt lat="51.967833" lon="-1.910495"><ele>238.06</ele><time>2011-03-23T10:38:25Z</time></trkpt><trkpt lat="51.967899" lon="-1.910375"><ele>241.43</ele><time>2011-03-23T10:38:39Z</time></trkpt><trkpt lat="51.967926" lon="-1.910306"><ele>243.35</ele><time>2011-03-23T10:38:50Z</time></trkpt><trkpt lat="51.967967" lon="-1.910273"><ele>245.27</ele><time>2011-03-23T10:39:01Z</time></trkpt><trkpt lat="51.968039" lon="-1.910215"><ele>246.23</ele><time>2011-03-23T10:39:12Z</time></trkpt><trkpt lat="51.968088" lon="-1.910190"><ele>247.68</ele><time>2011-03-23T10:39:23Z</time></trkpt><trkpt lat="51.968126" lon="-1.910133"><ele>248.64</ele><time>2011-03-23T10:39:34Z</time></trkpt><trkpt lat="51.968152" lon="-1.910086"><ele>250.08</ele><time>2011-03-23T10:39:46Z</time></trkpt><trkpt lat="51.968198" lon="-1.910001"><ele>252.00</ele><time>2011-03-23T10:40:02Z</time></trkpt><trkpt lat="51.968197" lon="-1.909969"><ele>252.48</ele><time>2011-03-23T10:40:10Z</time></trkpt><trkpt lat="51.968235" lon="-1.909920"><ele>253.93</ele><time>2011-03-23T10:40:20Z</time></trkpt><trkpt lat="51.968230" lon="-1.909857"><ele>254.89</ele><time>2011-03-23T10:40:29Z</time></trkpt><trkpt lat="51.968229" lon="-1.909830"><ele>256.33</ele><time>2011-03-23T10:40:50Z</time></trkpt><trkpt lat="51.968218" lon="-1.909771"><ele>259.21</ele><time>2011-03-23T10:41:07Z</time></trkpt><trkpt lat="51.968220" lon="-1.909751"><ele>259.69</ele><time>2011-03-23T10:41:26Z</time></trkpt><trkpt lat="51.968239" lon="-1.909714"><ele>260.65</ele><time>2011-03-23T10:41:39Z</time></trkpt><trkpt lat="51.968239" lon="-1.909634"><ele>260.65</ele><time>2011-03-23T10:41:49Z</time></trkpt><trkpt lat="51.968184" lon="-1.909565"><ele>263.54</ele><time>2011-03-23T10:41:59Z</time></trkpt><trkpt lat="51.968107" lon="-1.909507"><ele>268.83</ele><time>2011-03-23T10:42:12Z</time></trkpt><trkpt lat="51.968069" lon="-1.909462"><ele>272.19</ele><time>2011-03-23T10:42:27Z</time></trkpt><trkpt lat="51.968084" lon="-1.909442"><ele>273.15</ele><time>2011-03-23T10:42:36Z</time></trkpt><trkpt lat="51.968049" lon="-1.909405"><ele>274.11</ele><time>2011-03-23T10:43:00Z</time></trkpt><trkpt lat="51.967978" lon="-1.909407"><ele>273.15</ele><time>2011-03-23T10:43:10Z</time></trkpt><trkpt lat="51.967978" lon="-1.909407"><ele>273.15</ele><time>2011-03-23T10:43:39Z</time></trkpt><trkpt lat="51.967981" lon="-1.909410"><ele>272.67</ele><time>2011-03-23T10:43:58Z</time></trkpt><trkpt lat="51.967979" lon="-1.909442"><ele>272.67</ele><time>2011-03-23T10:44:36Z</time></trkpt><trkpt lat="51.967999" lon="-1.909492"><ele>272.19</ele><time>2011-03-23T10:44:44Z</time></trkpt><trkpt lat="51.968004" lon="-1.909528"><ele>273.15</ele><time>2011-03-23T10:45:52Z</time></trkpt><trkpt lat="51.968004" lon="-1.909527"><ele>273.15</ele><time>2011-03-23T10:46:15Z</time></trkpt><trkpt lat="51.968039" lon="-1.909476"><ele>271.23</ele><time>2011-03-23T10:46:24Z</time></trkpt><trkpt lat="51.968044" lon="-1.909448"><ele>270.27</ele><time>2011-03-23T10:46:34Z</time></trkpt><trkpt lat="51.968044" lon="-1.909393"><ele>270.75</ele><time>2011-03-23T10:46:38Z</time></trkpt><trkpt lat="51.968052" lon="-1.909172"><ele>271.23</ele><time>2011-03-23T10:46:49Z</time></trkpt><trkpt lat="51.968058" lon="-1.908938"><ele>271.71</ele><time>2011-03-23T10:47:03Z</time></trkpt><trkpt lat="51.968069" lon="-1.908735"><ele>272.19</ele><time>2011-03-23T10:47:16Z</time></trkpt><trkpt lat="51.968068" lon="-1.908712"><ele>271.71</ele><time>2011-03-23T10:47:24Z</time></trkpt><trkpt lat="51.968074" lon="-1.908553"><ele>272.67</ele><time>2011-03-23T10:47:36Z</time></trkpt><trkpt lat="51.968088" lon="-1.908349"><ele>273.63</ele><time>2011-03-23T10:47:48Z</time></trkpt><trkpt lat="51.968097" lon="-1.908184"><ele>273.15</ele><time>2011-03-23T10:47:58Z</time></trkpt><trkpt lat="51.968113" lon="-1.907978"><ele>273.63</ele><time>2011-03-23T10:48:10Z</time></trkpt><trkpt lat="51.968130" lon="-1.907802"><ele>273.63</ele><time>2011-03-23T10:48:21Z</time></trkpt><trkpt lat="51.968156" lon="-1.907664"><ele>273.63</ele><time>2011-03-23T10:48:32Z</time></trkpt><trkpt lat="51.968190" lon="-1.907561"><ele>272.67</ele><time>2011-03-23T10:48:42Z</time></trkpt><trkpt lat="51.968206" lon="-1.907387"><ele>271.71</ele><time>2011-03-23T10:48:52Z</time></trkpt><trkpt lat="51.968235" lon="-1.907208"><ele>272.19</ele><time>2011-03-23T10:49:03Z</time></trkpt><trkpt lat="51.968245" lon="-1.907146"><ele>272.19</ele><time>2011-03-23T10:49:07Z</time></trkpt><trkpt lat="51.968269" lon="-1.907068"><ele>271.71</ele><time>2011-03-23T10:49:13Z</time></trkpt><trkpt lat="51.968288" lon="-1.906929"><ele>271.71</ele><time>2011-03-23T10:49:22Z</time></trkpt><trkpt lat="51.968298" lon="-1.906841"><ele>271.23</ele><time>2011-03-23T10:49:29Z</time></trkpt><trkpt lat="51.968313" lon="-1.906750"><ele>269.31</ele><time>2011-03-23T10:49:45Z</time></trkpt><trkpt lat="51.968357" lon="-1.906503"><ele>268.35</ele><time>2011-03-23T10:50:00Z</time></trkpt><trkpt lat="51.968392" lon="-1.906343"><ele>268.35</ele><time>2011-03-23T10:50:11Z</time></trkpt><trkpt lat="51.968416" lon="-1.906280"><ele>268.35</ele><time>2011-03-23T10:50:18Z</time></trkpt><trkpt lat="51.968409" lon="-1.906260"><ele>268.35</ele><time>2011-03-23T10:50:26Z</time></trkpt><trkpt lat="51.968407" lon="-1.906265"><ele>269.31</ele><time>2011-03-23T10:50:35Z</time></trkpt><trkpt lat="51.968396" lon="-1.906239"><ele>269.31</ele><time>2011-03-23T10:50:43Z</time></trkpt><trkpt lat="51.968408" lon="-1.906165"><ele>269.31</ele><time>2011-03-23T10:50:52Z</time></trkpt><trkpt lat="51.968419" lon="-1.905973"><ele>268.83</ele><time>2011-03-23T10:51:03Z</time></trkpt><trkpt lat="51.968425" lon="-1.905839"><ele>269.31</ele><time>2011-03-23T10:51:14Z</time></trkpt><trkpt lat="51.968412" lon="-1.905836"><ele>269.31</ele><time>2011-03-23T10:51:26Z</time></trkpt><trkpt lat="51.968394" lon="-1.905779"><ele>268.83</ele><time>2011-03-23T10:51:33Z</time></trkpt><trkpt lat="51.968395" lon="-1.905570"><ele>269.79</ele><time>2011-03-23T10:51:46Z</time></trkpt><trkpt lat="51.968386" lon="-1.905397"><ele>271.71</ele><time>2011-03-23T10:51:56Z</time></trkpt><trkpt lat="51.968378" lon="-1.905268"><ele>272.67</ele><time>2011-03-23T10:52:04Z</time></trkpt><trkpt lat="51.968367" lon="-1.905150"><ele>274.11</ele><time>2011-03-23T10:52:12Z</time></trkpt><trkpt lat="51.968352" lon="-1.905010"><ele>275.56</ele><time>2011-03-23T10:52:21Z</time></trkpt><trkpt lat="51.968328" lon="-1.904887"><ele>274.59</ele><time>2011-03-23T10:52:30Z</time></trkpt><trkpt lat="51.968293" lon="-1.904761"><ele>274.11</ele><time>2011-03-23T10:52:39Z</time></trkpt><trkpt lat="51.968273" lon="-1.904620"><ele>274.59</ele><time>2011-03-23T10:52:48Z</time></trkpt><trkpt lat="51.968247" lon="-1.904515"><ele>275.07</ele><time>2011-03-23T10:52:56Z</time></trkpt><trkpt lat="51.968216" lon="-1.904403"><ele>275.07</ele><time>2011-03-23T10:53:05Z</time></trkpt><trkpt lat="51.968182" lon="-1.904271"><ele>275.07</ele><time>2011-03-23T10:53:15Z</time></trkpt><trkpt lat="51.968155" lon="-1.904146"><ele>275.07</ele><time>2011-03-23T10:53:24Z</time></trkpt><trkpt lat="51.968127" lon="-1.904047"><ele>275.07</ele><time>2011-03-23T10:53:32Z</time></trkpt><trkpt lat="51.968105" lon="-1.903937"><ele>275.07</ele><time>2011-03-23T10:53:40Z</time></trkpt><trkpt lat="51.968072" lon="-1.903789"><ele>275.07</ele><time>2011-03-23T10:53:50Z</time></trkpt><trkpt lat="51.968050" lon="-1.903670"><ele>274.59</ele><time>2011-03-23T10:53:58Z</time></trkpt><trkpt lat="51.968019" lon="-1.903544"><ele>274.59</ele><time>2011-03-23T10:54:07Z</time></trkpt><trkpt lat="51.967987" lon="-1.903422"><ele>275.07</ele><time>2011-03-23T10:54:15Z</time></trkpt><trkpt lat="51.967950" lon="-1.903287"><ele>275.56</ele><time>2011-03-23T10:54:24Z</time></trkpt><trkpt lat="51.967924" lon="-1.903159"><ele>276.04</ele><time>2011-03-23T10:54:32Z</time></trkpt><trkpt lat="51.967907" lon="-1.903058"><ele>276.04</ele><time>2011-03-23T10:54:39Z</time></trkpt><trkpt lat="51.967882" lon="-1.902941"><ele>276.52</ele><time>2011-03-23T10:54:48Z</time></trkpt><trkpt lat="51.967851" lon="-1.902806"><ele>277.00</ele><time>2011-03-23T10:54:57Z</time></trkpt><trkpt lat="51.967820" lon="-1.902682"><ele>277.00</ele><time>2011-03-23T10:55:06Z</time></trkpt><trkpt lat="51.967785" lon="-1.902551"><ele>276.52</ele><time>2011-03-23T10:55:15Z</time></trkpt><trkpt lat="51.967764" lon="-1.902441"><ele>276.52</ele><time>2011-03-23T10:55:23Z</time></trkpt><trkpt lat="51.967731" lon="-1.902334"><ele>277.00</ele><time>2011-03-23T10:55:31Z</time></trkpt><trkpt lat="51.967694" lon="-1.902200"><ele>277.00</ele><time>2011-03-23T10:55:40Z</time></trkpt><trkpt lat="51.967673" lon="-1.902094"><ele>277.48</ele><time>2011-03-23T10:55:48Z</time></trkpt><trkpt lat="51.967658" lon="-1.901986"><ele>277.96</ele><time>2011-03-23T10:55:56Z</time></trkpt><trkpt lat="51.967636" lon="-1.901870"><ele>278.44</ele><time>2011-03-23T10:56:04Z</time></trkpt><trkpt lat="51.967617" lon="-1.901761"><ele>278.44</ele><time>2011-03-23T10:56:12Z</time></trkpt><trkpt lat="51.967605" lon="-1.901645"><ele>278.44</ele><time>2011-03-23T10:56:21Z</time></trkpt><trkpt lat="51.967610" lon="-1.901566"><ele>278.44</ele><time>2011-03-23T10:56:28Z</time></trkpt><trkpt lat="51.967626" lon="-1.901514"><ele>277.96</ele><time>2011-03-23T10:56:35Z</time></trkpt><trkpt lat="51.967596" lon="-1.901413"><ele>277.96</ele><time>2011-03-23T10:56:44Z</time></trkpt><trkpt lat="51.967554" lon="-1.901322"><ele>277.96</ele><time>2011-03-23T10:56:52Z</time></trkpt><trkpt lat="51.967505" lon="-1.901217"><ele>277.96</ele><time>2011-03-23T10:57:01Z</time></trkpt><trkpt lat="51.967469" lon="-1.901103"><ele>278.44</ele><time>2011-03-23T10:57:11Z</time></trkpt><trkpt lat="51.967435" lon="-1.901014"><ele>279.40</ele><time>2011-03-23T10:57:19Z</time></trkpt><trkpt lat="51.967423" lon="-1.900995"><ele>278.92</ele><time>2011-03-23T10:57:21Z</time></trkpt><trkpt lat="51.967379" lon="-1.900919"><ele>279.40</ele><time>2011-03-23T10:57:29Z</time></trkpt><trkpt lat="51.967346" lon="-1.900827"><ele>279.88</ele><time>2011-03-23T10:57:37Z</time></trkpt><trkpt lat="51.967317" lon="-1.900725"><ele>280.36</ele><time>2011-03-23T10:57:45Z</time></trkpt><trkpt lat="51.967274" lon="-1.900607"><ele>279.88</ele><time>2011-03-23T10:57:55Z</time></trkpt><trkpt lat="51.967274" lon="-1.900549"><ele>279.88</ele><time>2011-03-23T10:57:59Z</time></trkpt><trkpt lat="51.967333" lon="-1.900433"><ele>279.40</ele><time>2011-03-23T10:58:10Z</time></trkpt><trkpt lat="51.967381" lon="-1.900358"><ele>278.92</ele><time>2011-03-23T10:58:19Z</time></trkpt><trkpt lat="51.967443" lon="-1.900265"><ele>278.44</ele><time>2011-03-23T10:58:29Z</time></trkpt><trkpt lat="51.967514" lon="-1.900161"><ele>278.44</ele><time>2011-03-23T10:58:39Z</time></trkpt><trkpt lat="51.967589" lon="-1.900052"><ele>277.96</ele><time>2011-03-23T10:58:49Z</time></trkpt><trkpt lat="51.967665" lon="-1.899933"><ele>277.48</ele><time>2011-03-23T10:58:59Z</time></trkpt><trkpt lat="51.967729" lon="-1.899830"><ele>276.52</ele><time>2011-03-23T10:59:09Z</time></trkpt><trkpt lat="51.967803" lon="-1.899713"><ele>275.56</ele><time>2011-03-23T10:59:20Z</time></trkpt><trkpt lat="51.967867" lon="-1.899618"><ele>275.56</ele><time>2011-03-23T10:59:29Z</time></trkpt><trkpt lat="51.967939" lon="-1.899493"><ele>275.56</ele><time>2011-03-23T10:59:41Z</time></trkpt><trkpt lat="51.967998" lon="-1.899404"><ele>275.07</ele><time>2011-03-23T10:59:49Z</time></trkpt><trkpt lat="51.968071" lon="-1.899288"><ele>274.11</ele><time>2011-03-23T11:00:00Z</time></trkpt><trkpt lat="51.968147" lon="-1.899158"><ele>273.15</ele><time>2011-03-23T11:00:11Z</time></trkpt><trkpt lat="51.968234" lon="-1.899017"><ele>271.71</ele><time>2011-03-23T11:00:24Z</time></trkpt><trkpt lat="51.968311" lon="-1.898882"><ele>269.79</ele><time>2011-03-23T11:00:36Z</time></trkpt><trkpt lat="51.968384" lon="-1.898754"><ele>268.35</ele><time>2011-03-23T11:00:48Z</time></trkpt><trkpt lat="51.968450" lon="-1.898623"><ele>267.38</ele><time>2011-03-23T11:01:00Z</time></trkpt><trkpt lat="51.968514" lon="-1.898502"><ele>266.90</ele><time>2011-03-23T11:01:11Z</time></trkpt><trkpt lat="51.968591" lon="-1.898378"><ele>266.42</ele><time>2011-03-23T11:01:23Z</time></trkpt><trkpt lat="51.968662" lon="-1.898262"><ele>265.94</ele><time>2011-03-23T11:01:35Z</time></trkpt><trkpt lat="51.968719" lon="-1.898170"><ele>265.46</ele><time>2011-03-23T11:01:45Z</time></trkpt><trkpt lat="51.968788" lon="-1.898057"><ele>264.50</ele><time>2011-03-23T11:01:57Z</time></trkpt><trkpt lat="51.968858" lon="-1.897949"><ele>264.02</ele><time>2011-03-23T11:02:07Z</time></trkpt><trkpt lat="51.968921" lon="-1.897858"><ele>264.50</ele><time>2011-03-23T11:02:15Z</time></trkpt><trkpt lat="51.968965" lon="-1.897783"><ele>263.54</ele><time>2011-03-23T11:02:22Z</time></trkpt><trkpt lat="51.969011" lon="-1.897709"><ele>262.58</ele><time>2011-03-23T11:02:30Z</time></trkpt><trkpt lat="51.969061" lon="-1.897623"><ele>263.06</ele><time>2011-03-23T11:02:38Z</time></trkpt><trkpt lat="51.969102" lon="-1.897556"><ele>262.58</ele><time>2011-03-23T11:02:45Z</time></trkpt><trkpt lat="51.969151" lon="-1.897471"><ele>261.62</ele><time>2011-03-23T11:02:53Z</time></trkpt><trkpt lat="51.969238" lon="-1.897372"><ele>259.69</ele><time>2011-03-23T11:03:05Z</time></trkpt><trkpt lat="51.969281" lon="-1.897296"><ele>257.29</ele><time>2011-03-23T11:03:16Z</time></trkpt><trkpt lat="51.969276" lon="-1.897291"><ele>258.25</ele><time>2011-03-23T11:03:24Z</time></trkpt><trkpt lat="51.969265" lon="-1.897286"><ele>258.73</ele><time>2011-03-23T11:03:33Z</time></trkpt><trkpt lat="51.969267" lon="-1.897284"><ele>258.73</ele><time>2011-03-23T11:03:46Z</time></trkpt><trkpt lat="51.969255" lon="-1.897278"><ele>258.73</ele><time>2011-03-23T11:04:07Z</time></trkpt><trkpt lat="51.969248" lon="-1.897258"><ele>258.25</ele><time>2011-03-23T11:04:22Z</time></trkpt><trkpt lat="51.969254" lon="-1.897246"><ele>258.25</ele><time>2011-03-23T11:04:37Z</time></trkpt><trkpt lat="51.969252" lon="-1.897255"><ele>258.25</ele><time>2011-03-23T11:04:47Z</time></trkpt><trkpt lat="51.969250" lon="-1.897272"><ele>258.25</ele><time>2011-03-23T11:05:14Z</time></trkpt><trkpt lat="51.969249" lon="-1.897276"><ele>258.73</ele><time>2011-03-23T11:05:31Z</time></trkpt><trkpt lat="51.969250" lon="-1.897274"><ele>258.73</ele><time>2011-03-23T11:06:17Z</time></trkpt><trkpt lat="51.969250" lon="-1.897265"><ele>257.77</ele><time>2011-03-23T11:07:27Z</time></trkpt><trkpt lat="51.969251" lon="-1.897269"><ele>258.25</ele><time>2011-03-23T11:07:43Z</time></trkpt><trkpt lat="51.969253" lon="-1.897270"><ele>258.25</ele><time>2011-03-23T11:08:03Z</time></trkpt><trkpt lat="51.969247" lon="-1.897271"><ele>258.73</ele><time>2011-03-23T11:08:43Z</time></trkpt><trkpt lat="51.969249" lon="-1.897270"><ele>258.73</ele><time>2011-03-23T11:08:59Z</time></trkpt><trkpt lat="51.969249" lon="-1.897275"><ele>258.73</ele><time>2011-03-23T11:10:20Z</time></trkpt><trkpt lat="51.969252" lon="-1.897285"><ele>259.21</ele><time>2011-03-23T11:10:31Z</time></trkpt><trkpt lat="51.969253" lon="-1.897281"><ele>259.21</ele><time>2011-03-23T11:12:09Z</time></trkpt><trkpt lat="51.969257" lon="-1.897281"><ele>259.21</ele><time>2011-03-23T11:12:27Z</time></trkpt><trkpt lat="51.969260" lon="-1.897282"><ele>259.21</ele><time>2011-03-23T11:12:41Z</time></trkpt><trkpt lat="51.969260" lon="-1.897284"><ele>259.21</ele><time>2011-03-23T11:13:15Z</time></trkpt><trkpt lat="51.969262" lon="-1.897284"><ele>259.21</ele><time>2011-03-23T11:13:56Z</time></trkpt><trkpt lat="51.969262" lon="-1.897284"><ele>259.69</ele><time>2011-03-23T11:14:13Z</time></trkpt><trkpt lat="51.969268" lon="-1.897281"><ele>259.69</ele><time>2011-03-23T11:14:35Z</time></trkpt><trkpt lat="51.969272" lon="-1.897280"><ele>259.69</ele><time>2011-03-23T11:14:47Z</time></trkpt><trkpt lat="51.969270" lon="-1.897290"><ele>260.17</ele><time>2011-03-23T11:15:00Z</time></trkpt><trkpt lat="51.969274" lon="-1.897288"><ele>260.65</ele><time>2011-03-23T11:15:20Z</time></trkpt><trkpt lat="51.969283" lon="-1.897287"><ele>260.65</ele><time>2011-03-23T11:15:46Z</time></trkpt><trkpt lat="51.969299" lon="-1.897279"><ele>261.14</ele><time>2011-03-23T11:15:58Z</time></trkpt><trkpt lat="51.969341" lon="-1.897200"><ele>261.62</ele><time>2011-03-23T11:16:06Z</time></trkpt><trkpt lat="51.969380" lon="-1.897074"><ele>261.62</ele><time>2011-03-23T11:16:15Z</time></trkpt><trkpt lat="51.969425" lon="-1.896952"><ele>262.58</ele><time>2011-03-23T11:16:24Z</time></trkpt><trkpt lat="51.969470" lon="-1.896858"><ele>261.62</ele><time>2011-03-23T11:16:32Z</time></trkpt><trkpt lat="51.969525" lon="-1.896740"><ele>260.65</ele><time>2011-03-23T11:16:41Z</time></trkpt><trkpt lat="51.969567" lon="-1.896620"><ele>261.14</ele><time>2011-03-23T11:16:49Z</time></trkpt><trkpt lat="51.969622" lon="-1.896499"><ele>261.62</ele><time>2011-03-23T11:16:58Z</time></trkpt><trkpt lat="51.969690" lon="-1.896339"><ele>261.14</ele><time>2011-03-23T11:17:09Z</time></trkpt><trkpt lat="51.969757" lon="-1.896203"><ele>261.14</ele><time>2011-03-23T11:17:19Z</time></trkpt><trkpt lat="51.969833" lon="-1.896040"><ele>260.65</ele><time>2011-03-23T11:17:30Z</time></trkpt><trkpt lat="51.969908" lon="-1.895891"><ele>260.65</ele><time>2011-03-23T11:17:41Z</time></trkpt><trkpt lat="51.969970" lon="-1.895764"><ele>260.65</ele><time>2011-03-23T11:17:50Z</time></trkpt><trkpt lat="51.970039" lon="-1.895618"><ele>261.14</ele><time>2011-03-23T11:18:00Z</time></trkpt><trkpt lat="51.970101" lon="-1.895455"><ele>261.62</ele><time>2011-03-23T11:18:11Z</time></trkpt><trkpt lat="51.970153" lon="-1.895333"><ele>261.62</ele><time>2011-03-23T11:18:20Z</time></trkpt><trkpt lat="51.970200" lon="-1.895229"><ele>262.10</ele><time>2011-03-23T11:18:28Z</time></trkpt><trkpt lat="51.970253" lon="-1.895138"><ele>262.10</ele><time>2011-03-23T11:18:35Z</time></trkpt><trkpt lat="51.970289" lon="-1.895028"><ele>262.10</ele><time>2011-03-23T11:18:43Z</time></trkpt><trkpt lat="51.970337" lon="-1.894901"><ele>261.14</ele><time>2011-03-23T11:18:52Z</time></trkpt><trkpt lat="51.970381" lon="-1.894786"><ele>261.14</ele><time>2011-03-23T11:19:00Z</time></trkpt><trkpt lat="51.970440" lon="-1.894651"><ele>260.65</ele><time>2011-03-23T11:19:09Z</time></trkpt><trkpt lat="51.970499" lon="-1.894519"><ele>260.17</ele><time>2011-03-23T11:19:18Z</time></trkpt><trkpt lat="51.970549" lon="-1.894413"><ele>260.17</ele><time>2011-03-23T11:19:26Z</time></trkpt><trkpt lat="51.970595" lon="-1.894284"><ele>260.65</ele><time>2011-03-23T11:19:35Z</time></trkpt><trkpt lat="51.970650" lon="-1.894135"><ele>259.69</ele><time>2011-03-23T11:19:44Z</time></trkpt><trkpt lat="51.970671" lon="-1.894090"><ele>259.69</ele><time>2011-03-23T11:19:47Z</time></trkpt><trkpt lat="51.970733" lon="-1.893967"><ele>260.65</ele><time>2011-03-23T11:19:56Z</time></trkpt><trkpt lat="51.970800" lon="-1.893811"><ele>261.62</ele><time>2011-03-23T11:20:06Z</time></trkpt><trkpt lat="51.970790" lon="-1.893766"><ele>260.65</ele><time>2011-03-23T11:20:13Z</time></trkpt><trkpt lat="51.970799" lon="-1.893741"><ele>261.14</ele><time>2011-03-23T11:20:22Z</time></trkpt><trkpt lat="51.970861" lon="-1.893625"><ele>261.62</ele><time>2011-03-23T11:20:30Z</time></trkpt><trkpt lat="51.970927" lon="-1.893497"><ele>262.10</ele><time>2011-03-23T11:20:39Z</time></trkpt><trkpt lat="51.971005" lon="-1.893327"><ele>262.10</ele><time>2011-03-23T11:20:50Z</time></trkpt><trkpt lat="51.971075" lon="-1.893173"><ele>261.14</ele><time>2011-03-23T11:20:59Z</time></trkpt><trkpt lat="51.971146" lon="-1.893011"><ele>260.17</ele><time>2011-03-23T11:21:10Z</time></trkpt><trkpt lat="51.971212" lon="-1.892844"><ele>258.73</ele><time>2011-03-23T11:21:22Z</time></trkpt><trkpt lat="51.971261" lon="-1.892697"><ele>256.81</ele><time>2011-03-23T11:21:33Z</time></trkpt><trkpt lat="51.971318" lon="-1.892578"><ele>257.29</ele><time>2011-03-23T11:21:42Z</time></trkpt><trkpt lat="51.971372" lon="-1.892432"><ele>257.77</ele><time>2011-03-23T11:21:52Z</time></trkpt><trkpt lat="51.971423" lon="-1.892333"><ele>258.73</ele><time>2011-03-23T11:22:01Z</time></trkpt><trkpt lat="51.971489" lon="-1.892216"><ele>258.73</ele><time>2011-03-23T11:22:11Z</time></trkpt><trkpt lat="51.971550" lon="-1.892115"><ele>259.69</ele><time>2011-03-23T11:22:20Z</time></trkpt><trkpt lat="51.971596" lon="-1.892012"><ele>259.69</ele><time>2011-03-23T11:22:28Z</time></trkpt><trkpt lat="51.971641" lon="-1.891927"><ele>260.17</ele><time>2011-03-23T11:22:35Z</time></trkpt><trkpt lat="51.971688" lon="-1.891809"><ele>260.17</ele><time>2011-03-23T11:22:43Z</time></trkpt><trkpt lat="51.971731" lon="-1.891721"><ele>260.17</ele><time>2011-03-23T11:22:50Z</time></trkpt><trkpt lat="51.971784" lon="-1.891618"><ele>260.65</ele><time>2011-03-23T11:22:58Z</time></trkpt><trkpt lat="51.971813" lon="-1.891525"><ele>261.14</ele><time>2011-03-23T11:23:06Z</time></trkpt><trkpt lat="51.971831" lon="-1.891429"><ele>261.14</ele><time>2011-03-23T11:23:14Z</time></trkpt><trkpt lat="51.971843" lon="-1.891399"><ele>260.65</ele><time>2011-03-23T11:23:16Z</time></trkpt><trkpt lat="51.971907" lon="-1.891296"><ele>260.17</ele><time>2011-03-23T11:23:26Z</time></trkpt><trkpt lat="51.971966" lon="-1.891232"><ele>259.21</ele><time>2011-03-23T11:23:35Z</time></trkpt><trkpt lat="51.972033" lon="-1.891171"><ele>258.73</ele><time>2011-03-23T11:23:45Z</time></trkpt><trkpt lat="51.972058" lon="-1.891169"><ele>259.21</ele><time>2011-03-23T11:23:52Z</time></trkpt><trkpt lat="51.972066" lon="-1.891176"><ele>259.69</ele><time>2011-03-23T11:24:11Z</time></trkpt><trkpt lat="51.972090" lon="-1.891209"><ele>258.25</ele><time>2011-03-23T11:24:20Z</time></trkpt><trkpt lat="51.972079" lon="-1.891233"><ele>255.85</ele><time>2011-03-23T11:24:34Z</time></trkpt><trkpt lat="51.972083" lon="-1.891388"><ele>254.89</ele><time>2011-03-23T11:24:45Z</time></trkpt><trkpt lat="51.972159" lon="-1.891496"><ele>256.33</ele><time>2011-03-23T11:24:58Z</time></trkpt><trkpt lat="51.972198" lon="-1.891530"><ele>256.81</ele><time>2011-03-23T11:25:06Z</time></trkpt><trkpt lat="51.972281" lon="-1.891663"><ele>259.21</ele><time>2011-03-23T11:25:21Z</time></trkpt><trkpt lat="51.972328" lon="-1.891798"><ele>258.73</ele><time>2011-03-23T11:25:35Z</time></trkpt><trkpt lat="51.972344" lon="-1.891836"><ele>258.73</ele><time>2011-03-23T11:25:39Z</time></trkpt><trkpt lat="51.972415" lon="-1.891966"><ele>258.25</ele><time>2011-03-23T11:25:51Z</time></trkpt><trkpt lat="51.972495" lon="-1.892105"><ele>257.77</ele><time>2011-03-23T11:26:04Z</time></trkpt><trkpt lat="51.972579" lon="-1.892246"><ele>257.29</ele><time>2011-03-23T11:26:17Z</time></trkpt><trkpt lat="51.972667" lon="-1.892397"><ele>257.29</ele><time>2011-03-23T11:26:30Z</time></trkpt><trkpt lat="51.972732" lon="-1.892484"><ele>256.81</ele><time>2011-03-23T11:26:40Z</time></trkpt><trkpt lat="51.972815" lon="-1.892615"><ele>256.33</ele><time>2011-03-23T11:26:53Z</time></trkpt><trkpt lat="51.972895" lon="-1.892750"><ele>255.37</ele><time>2011-03-23T11:27:06Z</time></trkpt><trkpt lat="51.972983" lon="-1.892873"><ele>255.37</ele><time>2011-03-23T11:27:19Z</time></trkpt><trkpt lat="51.973074" lon="-1.893007"><ele>255.37</ele><time>2011-03-23T11:27:30Z</time></trkpt><trkpt lat="51.973176" lon="-1.893179"><ele>254.89</ele><time>2011-03-23T11:27:44Z</time></trkpt><trkpt lat="51.973260" lon="-1.893344"><ele>254.89</ele><time>2011-03-23T11:27:57Z</time></trkpt><trkpt lat="51.973320" lon="-1.893514"><ele>254.41</ele><time>2011-03-23T11:28:09Z</time></trkpt><trkpt lat="51.973388" lon="-1.893690"><ele>254.41</ele><time>2011-03-23T11:28:22Z</time></trkpt><trkpt lat="51.973457" lon="-1.893886"><ele>254.41</ele><time>2011-03-23T11:28:35Z</time></trkpt><trkpt lat="51.973495" lon="-1.894044"><ele>252.96</ele><time>2011-03-23T11:28:46Z</time></trkpt><trkpt lat="51.973535" lon="-1.894205"><ele>252.00</ele><time>2011-03-23T11:28:58Z</time></trkpt><trkpt lat="51.973538" lon="-1.894270"><ele>252.48</ele><time>2011-03-23T11:29:03Z</time></trkpt><trkpt lat="51.973543" lon="-1.894464"><ele>252.00</ele><time>2011-03-23T11:29:15Z</time></trkpt><trkpt lat="51.973547" lon="-1.894619"><ele>251.52</ele><time>2011-03-23T11:29:25Z</time></trkpt><trkpt lat="51.973539" lon="-1.894751"><ele>252.96</ele><time>2011-03-23T11:29:36Z</time></trkpt><trkpt lat="51.973534" lon="-1.894869"><ele>255.37</ele><time>2011-03-23T11:29:52Z</time></trkpt><trkpt lat="51.973515" lon="-1.894914"><ele>257.29</ele><time>2011-03-23T11:30:04Z</time></trkpt><trkpt lat="51.973497" lon="-1.894969"><ele>256.33</ele><time>2011-03-23T11:30:13Z</time></trkpt><trkpt lat="51.973497" lon="-1.895088"><ele>255.37</ele><time>2011-03-23T11:30:29Z</time></trkpt><trkpt lat="51.973504" lon="-1.895168"><ele>254.89</ele><time>2011-03-23T11:30:39Z</time></trkpt><trkpt lat="51.973536" lon="-1.895227"><ele>253.44</ele><time>2011-03-23T11:30:50Z</time></trkpt><trkpt lat="51.973553" lon="-1.895388"><ele>252.96</ele><time>2011-03-23T11:31:05Z</time></trkpt><trkpt lat="51.973603" lon="-1.895482"><ele>253.44</ele><time>2011-03-23T11:31:14Z</time></trkpt><trkpt lat="51.973640" lon="-1.895526"><ele>253.44</ele><time>2011-03-23T11:31:24Z</time></trkpt><trkpt lat="51.973649" lon="-1.895552"><ele>252.00</ele><time>2011-03-23T11:31:37Z</time></trkpt><trkpt lat="51.973662" lon="-1.895554"><ele>251.04</ele><time>2011-03-23T11:31:54Z</time></trkpt><trkpt lat="51.973693" lon="-1.895622"><ele>249.12</ele><time>2011-03-23T11:32:06Z</time></trkpt><trkpt lat="51.973734" lon="-1.895696"><ele>247.20</ele><time>2011-03-23T11:32:19Z</time></trkpt><trkpt lat="51.973736" lon="-1.895756"><ele>246.23</ele><time>2011-03-23T11:32:32Z</time></trkpt><trkpt lat="51.973737" lon="-1.895802"><ele>246.23</ele><time>2011-03-23T11:32:40Z</time></trkpt><trkpt lat="51.973757" lon="-1.895844"><ele>246.23</ele><time>2011-03-23T11:32:56Z</time></trkpt><trkpt lat="51.973769" lon="-1.895874"><ele>245.75</ele><time>2011-03-23T11:33:06Z</time></trkpt><trkpt lat="51.973775" lon="-1.895920"><ele>244.31</ele><time>2011-03-23T11:33:13Z</time></trkpt><trkpt lat="51.973775" lon="-1.895997"><ele>244.31</ele><time>2011-03-23T11:33:43Z</time></trkpt><trkpt lat="51.973777" lon="-1.896074"><ele>244.31</ele><time>2011-03-23T11:33:47Z</time></trkpt><trkpt lat="51.973781" lon="-1.896107"><ele>244.31</ele><time>2011-03-23T11:33:49Z</time></trkpt><trkpt lat="51.973806" lon="-1.896265"><ele>241.91</ele><time>2011-03-23T11:33:57Z</time></trkpt><trkpt lat="51.973837" lon="-1.896395"><ele>239.99</ele><time>2011-03-23T11:34:05Z</time></trkpt><trkpt lat="51.973852" lon="-1.896522"><ele>237.10</ele><time>2011-03-23T11:34:12Z</time></trkpt><trkpt lat="51.973850" lon="-1.896717"><ele>233.26</ele><time>2011-03-23T11:34:21Z</time></trkpt><trkpt lat="51.973900" lon="-1.896887"><ele>231.81</ele><time>2011-03-23T11:34:30Z</time></trkpt><trkpt lat="51.973919" lon="-1.897005"><ele>231.81</ele><time>2011-03-23T11:34:37Z</time></trkpt><trkpt lat="51.973936" lon="-1.897148"><ele>231.81</ele><time>2011-03-23T11:34:46Z</time></trkpt><trkpt lat="51.973935" lon="-1.897308"><ele>232.30</ele><time>2011-03-23T11:34:56Z</time></trkpt><trkpt lat="51.973937" lon="-1.897339"><ele>232.30</ele><time>2011-03-23T11:34:58Z</time></trkpt><trkpt lat="51.973928" lon="-1.897457"><ele>233.26</ele><time>2011-03-23T11:35:07Z</time></trkpt><trkpt lat="51.973939" lon="-1.897583"><ele>232.78</ele><time>2011-03-23T11:35:15Z</time></trkpt><trkpt lat="51.973941" lon="-1.897732"><ele>232.30</ele><time>2011-03-23T11:35:24Z</time></trkpt><trkpt lat="51.973949" lon="-1.897862"><ele>232.78</ele><time>2011-03-23T11:35:32Z</time></trkpt><trkpt lat="51.973953" lon="-1.897951"><ele>232.30</ele><time>2011-03-23T11:35:39Z</time></trkpt><trkpt lat="51.973972" lon="-1.898045"><ele>232.30</ele><time>2011-03-23T11:35:47Z</time></trkpt><trkpt lat="51.973984" lon="-1.898124"><ele>232.78</ele><time>2011-03-23T11:35:55Z</time></trkpt><trkpt lat="51.973982" lon="-1.898172"><ele>232.78</ele><time>2011-03-23T11:36:00Z</time></trkpt><trkpt lat="51.973983" lon="-1.898194"><ele>232.78</ele><time>2011-03-23T11:36:03Z</time></trkpt><trkpt lat="51.974004" lon="-1.898246"><ele>231.81</ele><time>2011-03-23T11:36:11Z</time></trkpt><trkpt lat="51.973997" lon="-1.898259"><ele>231.33</ele><time>2011-03-23T11:36:13Z</time></trkpt><trkpt lat="51.973999" lon="-1.898338"><ele>230.37</ele><time>2011-03-23T11:36:20Z</time></trkpt><trkpt lat="51.974010" lon="-1.898358"><ele>230.37</ele><time>2011-03-23T11:36:22Z</time></trkpt><trkpt lat="51.974066" lon="-1.898411"><ele>229.89</ele><time>2011-03-23T11:36:30Z</time></trkpt><trkpt lat="51.974107" lon="-1.898475"><ele>227.97</ele><time>2011-03-23T11:36:38Z</time></trkpt><trkpt lat="51.974150" lon="-1.898531"><ele>226.05</ele><time>2011-03-23T11:36:46Z</time></trkpt><trkpt lat="51.974183" lon="-1.898581"><ele>225.57</ele><time>2011-03-23T11:36:52Z</time></trkpt><trkpt lat="51.974228" lon="-1.898654"><ele>223.64</ele><time>2011-03-23T11:37:01Z</time></trkpt><trkpt lat="51.974265" lon="-1.898718"><ele>222.68</ele><time>2011-03-23T11:37:09Z</time></trkpt><trkpt lat="51.974322" lon="-1.898786"><ele>220.76</ele><time>2011-03-23T11:37:20Z</time></trkpt><trkpt lat="51.974368" lon="-1.898837"><ele>218.84</ele><time>2011-03-23T11:37:29Z</time></trkpt><trkpt lat="51.974424" lon="-1.898884"><ele>216.91</ele><time>2011-03-23T11:37:38Z</time></trkpt><trkpt lat="51.974472" lon="-1.898948"><ele>215.47</ele><time>2011-03-23T11:37:47Z</time></trkpt><trkpt lat="51.974523" lon="-1.899001"><ele>214.99</ele><time>2011-03-23T11:37:56Z</time></trkpt><trkpt lat="51.974591" lon="-1.899032"><ele>212.59</ele><time>2011-03-23T11:38:07Z</time></trkpt><trkpt lat="51.974628" lon="-1.899045"><ele>212.11</ele><time>2011-03-23T11:38:14Z</time></trkpt><trkpt lat="51.974686" lon="-1.899095"><ele>210.67</ele><time>2011-03-23T11:38:22Z</time></trkpt><trkpt lat="51.974707" lon="-1.899098"><ele>210.19</ele><time>2011-03-23T11:38:30Z</time></trkpt><trkpt lat="51.974714" lon="-1.899094"><ele>210.19</ele><time>2011-03-23T11:38:36Z</time></trkpt><trkpt lat="51.974718" lon="-1.899092"><ele>209.70</ele><time>2011-03-23T11:38:37Z</time></trkpt><trkpt lat="51.974804" lon="-1.899102"><ele>208.74</ele><time>2011-03-23T11:38:45Z</time></trkpt><trkpt lat="51.974911" lon="-1.899158"><ele>208.26</ele><time>2011-03-23T11:38:55Z</time></trkpt><trkpt lat="51.974995" lon="-1.899195"><ele>206.82</ele><time>2011-03-23T11:39:03Z</time></trkpt><trkpt lat="51.975015" lon="-1.899200"><ele>206.82</ele><time>2011-03-23T11:39:05Z</time></trkpt><trkpt lat="51.975112" lon="-1.899223"><ele>204.42</ele><time>2011-03-23T11:39:16Z</time></trkpt><trkpt lat="51.975186" lon="-1.899246"><ele>202.01</ele><time>2011-03-23T11:39:27Z</time></trkpt><trkpt lat="51.975218" lon="-1.899259"><ele>201.05</ele><time>2011-03-23T11:39:36Z</time></trkpt><trkpt lat="51.975250" lon="-1.899253"><ele>200.57</ele><time>2011-03-23T11:39:44Z</time></trkpt><trkpt lat="51.975313" lon="-1.899258"><ele>200.09</ele><time>2011-03-23T11:39:52Z</time></trkpt><trkpt lat="51.975394" lon="-1.899294"><ele>199.61</ele><time>2011-03-23T11:40:01Z</time></trkpt><trkpt lat="51.975444" lon="-1.899334"><ele>198.17</ele><time>2011-03-23T11:40:09Z</time></trkpt><trkpt lat="51.975463" lon="-1.899346"><ele>198.65</ele><time>2011-03-23T11:40:20Z</time></trkpt><trkpt lat="51.975471" lon="-1.899353"><ele>198.65</ele><time>2011-03-23T11:40:38Z</time></trkpt><trkpt lat="51.975499" lon="-1.899382"><ele>197.69</ele><time>2011-03-23T11:40:53Z</time></trkpt><trkpt lat="51.975516" lon="-1.899366"><ele>196.73</ele><time>2011-03-23T11:41:02Z</time></trkpt><trkpt lat="51.975511" lon="-1.899379"><ele>196.25</ele><time>2011-03-23T11:41:10Z</time></trkpt><trkpt lat="51.975516" lon="-1.899392"><ele>195.28</ele><time>2011-03-23T11:41:17Z</time></trkpt><trkpt lat="51.975523" lon="-1.899500"><ele>194.32</ele><time>2011-03-23T11:41:26Z</time></trkpt><trkpt lat="51.975498" lon="-1.899705"><ele>195.77</ele><time>2011-03-23T11:41:39Z</time></trkpt><trkpt lat="51.975468" lon="-1.899831"><ele>194.80</ele><time>2011-03-23T11:41:48Z</time></trkpt><trkpt lat="51.975489" lon="-1.899941"><ele>194.80</ele><time>2011-03-23T11:41:55Z</time></trkpt><trkpt lat="51.975504" lon="-1.900068"><ele>194.80</ele><time>2011-03-23T11:42:03Z</time></trkpt><trkpt lat="51.975519" lon="-1.900176"><ele>194.32</ele><time>2011-03-23T11:42:11Z</time></trkpt><trkpt lat="51.975531" lon="-1.900283"><ele>193.36</ele><time>2011-03-23T11:42:19Z</time></trkpt><trkpt lat="51.975546" lon="-1.900385"><ele>190.48</ele><time>2011-03-23T11:42:27Z</time></trkpt><trkpt lat="51.975566" lon="-1.900530"><ele>190.48</ele><time>2011-03-23T11:42:36Z</time></trkpt><trkpt lat="51.975581" lon="-1.900720"><ele>190.00</ele><time>2011-03-23T11:42:48Z</time></trkpt><trkpt lat="51.975602" lon="-1.900944"><ele>190.00</ele><time>2011-03-23T11:43:03Z</time></trkpt><trkpt lat="51.975629" lon="-1.901129"><ele>188.08</ele><time>2011-03-23T11:43:17Z</time></trkpt><trkpt lat="51.975646" lon="-1.901301"><ele>187.59</ele><time>2011-03-23T11:43:30Z</time></trkpt><trkpt lat="51.975668" lon="-1.901473"><ele>185.67</ele><time>2011-03-23T11:43:43Z</time></trkpt><trkpt lat="51.975712" lon="-1.901632"><ele>184.71</ele><time>2011-03-23T11:43:56Z</time></trkpt><trkpt lat="51.975742" lon="-1.901802"><ele>185.19</ele><time>2011-03-23T11:44:10Z</time></trkpt><trkpt lat="51.975762" lon="-1.901930"><ele>184.23</ele><time>2011-03-23T11:44:21Z</time></trkpt><trkpt lat="51.975799" lon="-1.902051"><ele>184.23</ele><time>2011-03-23T11:44:32Z</time></trkpt><trkpt lat="51.975834" lon="-1.902189"><ele>184.23</ele><time>2011-03-23T11:44:45Z</time></trkpt><trkpt lat="51.975851" lon="-1.902266"><ele>183.75</ele><time>2011-03-23T11:44:53Z</time></trkpt><trkpt lat="51.975877" lon="-1.902273"><ele>183.75</ele><time>2011-03-23T11:45:04Z</time></trkpt><trkpt lat="51.975894" lon="-1.902257"><ele>182.79</ele><time>2011-03-23T11:45:18Z</time></trkpt><trkpt lat="51.975927" lon="-1.902288"><ele>181.83</ele><time>2011-03-23T11:45:29Z</time></trkpt><trkpt lat="51.975948" lon="-1.902329"><ele>180.87</ele><time>2011-03-23T11:45:35Z</time></trkpt><trkpt lat="51.975968" lon="-1.902362"><ele>180.38</ele><time>2011-03-23T11:45:41Z</time></trkpt><trkpt lat="51.975994" lon="-1.902415"><ele>178.94</ele><time>2011-03-23T11:45:48Z</time></trkpt><trkpt lat="51.976031" lon="-1.902455"><ele>178.46</ele><time>2011-03-23T11:45:55Z</time></trkpt><trkpt lat="51.976065" lon="-1.902492"><ele>177.02</ele><time>2011-03-23T11:46:02Z</time></trkpt><trkpt lat="51.976105" lon="-1.902530"><ele>176.54</ele><time>2011-03-23T11:46:11Z</time></trkpt><trkpt lat="51.976134" lon="-1.902558"><ele>176.06</ele><time>2011-03-23T11:46:18Z</time></trkpt><trkpt lat="51.976165" lon="-1.902603"><ele>175.58</ele><time>2011-03-23T11:46:25Z</time></trkpt><trkpt lat="51.976201" lon="-1.902664"><ele>175.10</ele><time>2011-03-23T11:46:33Z</time></trkpt><trkpt lat="51.976243" lon="-1.902714"><ele>174.14</ele><time>2011-03-23T11:46:41Z</time></trkpt><trkpt lat="51.976288" lon="-1.902762"><ele>173.17</ele><time>2011-03-23T11:46:48Z</time></trkpt><trkpt lat="51.976321" lon="-1.902801"><ele>173.17</ele><time>2011-03-23T11:46:55Z</time></trkpt><trkpt lat="51.976364" lon="-1.902850"><ele>173.17</ele><time>2011-03-23T11:47:03Z</time></trkpt><trkpt lat="51.976408" lon="-1.902906"><ele>172.69</ele><time>2011-03-23T11:47:12Z</time></trkpt><trkpt lat="51.976448" lon="-1.902986"><ele>171.25</ele><time>2011-03-23T11:47:21Z</time></trkpt><trkpt lat="51.976479" lon="-1.903050"><ele>170.77</ele><time>2011-03-23T11:47:28Z</time></trkpt><trkpt lat="51.976513" lon="-1.903098"><ele>170.77</ele><time>2011-03-23T11:47:35Z</time></trkpt><trkpt lat="51.976514" lon="-1.903120"><ele>171.25</ele><time>2011-03-23T11:47:45Z</time></trkpt><trkpt lat="51.976540" lon="-1.903171"><ele>169.81</ele><time>2011-03-23T11:47:55Z</time></trkpt><trkpt lat="51.976590" lon="-1.903239"><ele>168.37</ele><time>2011-03-23T11:48:06Z</time></trkpt><trkpt lat="51.976625" lon="-1.903312"><ele>167.89</ele><time>2011-03-23T11:48:19Z</time></trkpt><trkpt lat="51.976666" lon="-1.903348"><ele>166.93</ele><time>2011-03-23T11:48:31Z</time></trkpt><trkpt lat="51.976701" lon="-1.903376"><ele>167.41</ele><time>2011-03-23T11:48:39Z</time></trkpt><trkpt lat="51.976764" lon="-1.903446"><ele>165.00</ele><time>2011-03-23T11:48:51Z</time></trkpt><trkpt lat="51.976788" lon="-1.903470"><ele>164.04</ele><time>2011-03-23T11:49:01Z</time></trkpt><trkpt lat="51.976840" lon="-1.903499"><ele>162.12</ele><time>2011-03-23T11:49:16Z</time></trkpt><trkpt lat="51.976835" lon="-1.903500"><ele>162.60</ele><time>2011-03-23T11:49:59Z</time></trkpt><trkpt lat="51.976873" lon="-1.903507"><ele>162.12</ele><time>2011-03-23T11:50:17Z</time></trkpt><trkpt lat="51.976941" lon="-1.903580"><ele>160.68</ele><time>2011-03-23T11:50:31Z</time></trkpt><trkpt lat="51.976976" lon="-1.903655"><ele>159.72</ele><time>2011-03-23T11:50:39Z</time></trkpt><trkpt lat="51.977011" lon="-1.903718"><ele>159.24</ele><time>2011-03-23T11:50:47Z</time></trkpt><trkpt lat="51.977043" lon="-1.903770"><ele>158.27</ele><time>2011-03-23T11:50:54Z</time></trkpt><trkpt lat="51.977063" lon="-1.903800"><ele>158.75</ele><time>2011-03-23T11:51:00Z</time></trkpt><trkpt lat="51.977091" lon="-1.903852"><ele>158.27</ele><time>2011-03-23T11:51:10Z</time></trkpt><trkpt lat="51.977125" lon="-1.903908"><ele>157.79</ele><time>2011-03-23T11:51:18Z</time></trkpt><trkpt lat="51.977148" lon="-1.903967"><ele>156.35</ele><time>2011-03-23T11:51:27Z</time></trkpt><trkpt lat="51.977169" lon="-1.903977"><ele>156.35</ele><time>2011-03-23T11:51:45Z</time></trkpt><trkpt lat="51.977174" lon="-1.903997"><ele>154.91</ele><time>2011-03-23T11:51:52Z</time></trkpt><trkpt lat="51.977184" lon="-1.904010"><ele>155.39</ele><time>2011-03-23T11:52:07Z</time></trkpt><trkpt lat="51.977197" lon="-1.904053"><ele>154.91</ele><time>2011-03-23T11:52:15Z</time></trkpt><trkpt lat="51.977203" lon="-1.904084"><ele>154.91</ele><time>2011-03-23T11:52:25Z</time></trkpt><trkpt lat="51.977201" lon="-1.904083"><ele>153.47</ele><time>2011-03-23T11:52:32Z</time></trkpt><trkpt lat="51.977242" lon="-1.904113"><ele>152.99</ele><time>2011-03-23T11:52:39Z</time></trkpt><trkpt lat="51.977259" lon="-1.904110"><ele>152.99</ele><time>2011-03-23T11:52:48Z</time></trkpt><trkpt lat="51.977247" lon="-1.904104"><ele>152.99</ele><time>2011-03-23T11:52:58Z</time></trkpt><trkpt lat="51.977255" lon="-1.904117"><ele>152.51</ele><time>2011-03-23T11:53:12Z</time></trkpt><trkpt lat="51.977294" lon="-1.904165"><ele>152.51</ele><time>2011-03-23T11:53:21Z</time></trkpt><trkpt lat="51.977315" lon="-1.904216"><ele>152.51</ele><time>2011-03-23T11:53:29Z</time></trkpt><trkpt lat="51.977320" lon="-1.904269"><ele>152.51</ele><time>2011-03-23T11:53:35Z</time></trkpt><trkpt lat="51.977322" lon="-1.904331"><ele>152.99</ele><time>2011-03-23T11:53:42Z</time></trkpt><trkpt lat="51.977337" lon="-1.904351"><ele>152.51</ele><time>2011-03-23T11:53:50Z</time></trkpt><trkpt lat="51.977340" lon="-1.904413"><ele>151.06</ele><time>2011-03-23T11:54:10Z</time></trkpt><trkpt lat="51.977364" lon="-1.904465"><ele>149.62</ele><time>2011-03-23T11:54:20Z</time></trkpt><trkpt lat="51.977382" lon="-1.904519"><ele>148.66</ele><time>2011-03-23T11:54:30Z</time></trkpt><trkpt lat="51.977418" lon="-1.904518"><ele>148.66</ele><time>2011-03-23T11:55:04Z</time></trkpt><trkpt lat="51.977408" lon="-1.904464"><ele>150.58</ele><time>2011-03-23T11:55:16Z</time></trkpt><trkpt lat="51.977400" lon="-1.904417"><ele>151.06</ele><time>2011-03-23T11:55:24Z</time></trkpt><trkpt lat="51.977398" lon="-1.904416"><ele>151.06</ele><time>2011-03-23T11:55:30Z</time></trkpt><trkpt lat="51.977387" lon="-1.904412"><ele>150.10</ele><time>2011-03-23T11:56:00Z</time></trkpt><trkpt lat="51.977394" lon="-1.904417"><ele>149.62</ele><time>2011-03-23T11:56:37Z</time></trkpt><trkpt lat="51.977395" lon="-1.904416"><ele>149.62</ele><time>2011-03-23T11:57:01Z</time></trkpt><trkpt lat="51.977405" lon="-1.904429"><ele>150.10</ele><time>2011-03-23T11:57:19Z</time></trkpt><trkpt lat="51.977431" lon="-1.904467"><ele>150.58</ele><time>2011-03-23T11:57:31Z</time></trkpt><trkpt lat="51.977433" lon="-1.904476"><ele>151.06</ele><time>2011-03-23T11:57:57Z</time></trkpt><trkpt lat="51.977441" lon="-1.904476"><ele>151.54</ele><time>2011-03-23T11:59:04Z</time></trkpt><trkpt lat="51.977433" lon="-1.904476"><ele>150.58</ele><time>2011-03-23T12:00:23Z</time></trkpt><trkpt lat="51.977435" lon="-1.904478"><ele>149.62</ele><time>2011-03-23T12:00:44Z</time></trkpt><trkpt lat="51.977440" lon="-1.904486"><ele>148.66</ele><time>2011-03-23T12:00:55Z</time></trkpt><trkpt lat="51.977440" lon="-1.904490"><ele>149.14</ele><time>2011-03-23T12:01:06Z</time></trkpt><trkpt lat="51.977448" lon="-1.904484"><ele>148.66</ele><time>2011-03-23T12:01:17Z</time></trkpt><trkpt lat="51.977454" lon="-1.904508"><ele>148.18</ele><time>2011-03-23T12:01:26Z</time></trkpt><trkpt lat="51.977464" lon="-1.904548"><ele>147.22</ele><time>2011-03-23T12:01:33Z</time></trkpt><trkpt lat="51.977491" lon="-1.904592"><ele>146.74</ele><time>2011-03-23T12:01:43Z</time></trkpt><trkpt lat="51.977515" lon="-1.904610"><ele>146.26</ele><time>2011-03-23T12:01:52Z</time></trkpt><trkpt lat="51.977539" lon="-1.904623"><ele>146.74</ele><time>2011-03-23T12:01:58Z</time></trkpt><trkpt lat="51.977560" lon="-1.904642"><ele>146.26</ele><time>2011-03-23T12:02:06Z</time></trkpt><trkpt lat="51.977579" lon="-1.904666"><ele>145.30</ele><time>2011-03-23T12:02:12Z</time></trkpt><trkpt lat="51.977587" lon="-1.904676"><ele>145.30</ele><time>2011-03-23T12:02:26Z</time></trkpt><trkpt lat="51.977600" lon="-1.904662"><ele>145.30</ele><time>2011-03-23T12:02:54Z</time></trkpt><trkpt lat="51.977601" lon="-1.904661"><ele>144.82</ele><time>2011-03-23T12:03:14Z</time></trkpt><trkpt lat="51.977606" lon="-1.904662"><ele>143.85</ele><time>2011-03-23T12:03:34Z</time></trkpt><trkpt lat="51.977611" lon="-1.904658"><ele>143.85</ele><time>2011-03-23T12:03:59Z</time></trkpt><trkpt lat="51.977607" lon="-1.904654"><ele>143.85</ele><time>2011-03-23T12:04:07Z</time></trkpt><trkpt lat="51.977607" lon="-1.904655"><ele>143.85</ele><time>2011-03-23T12:04:36Z</time></trkpt><trkpt lat="51.977607" lon="-1.904654"><ele>143.85</ele><time>2011-03-23T12:06:04Z</time></trkpt><trkpt lat="51.977598" lon="-1.904662"><ele>143.85</ele><time>2011-03-23T12:06:16Z</time></trkpt><trkpt lat="51.977596" lon="-1.904666"><ele>143.85</ele><time>2011-03-23T12:06:28Z</time></trkpt><trkpt lat="51.977614" lon="-1.904667"><ele>143.37</ele><time>2011-03-23T12:06:48Z</time></trkpt><trkpt lat="51.977643" lon="-1.904685"><ele>142.89</ele><time>2011-03-23T12:07:05Z</time></trkpt><trkpt lat="51.977670" lon="-1.904701"><ele>141.93</ele><time>2011-03-23T12:07:12Z</time></trkpt><trkpt lat="51.977701" lon="-1.904719"><ele>141.93</ele><time>2011-03-23T12:07:19Z</time></trkpt><trkpt lat="51.977723" lon="-1.904748"><ele>140.97</ele><time>2011-03-23T12:07:25Z</time></trkpt><trkpt lat="51.977739" lon="-1.904760"><ele>140.49</ele><time>2011-03-23T12:07:33Z</time></trkpt><trkpt lat="51.977780" lon="-1.904785"><ele>138.57</ele><time>2011-03-23T12:07:43Z</time></trkpt><trkpt lat="51.977816" lon="-1.904823"><ele>137.13</ele><time>2011-03-23T12:07:50Z</time></trkpt><trkpt lat="51.977856" lon="-1.904824"><ele>134.72</ele><time>2011-03-23T12:08:00Z</time></trkpt><trkpt lat="51.977860" lon="-1.904811"><ele>134.72</ele><time>2011-03-23T12:08:08Z</time></trkpt><trkpt lat="51.977870" lon="-1.904825"><ele>134.72</ele><time>2011-03-23T12:08:14Z</time></trkpt><trkpt lat="51.977887" lon="-1.904846"><ele>135.20</ele><time>2011-03-23T12:08:17Z</time></trkpt><trkpt lat="51.977941" lon="-1.904898"><ele>135.68</ele><time>2011-03-23T12:08:25Z</time></trkpt><trkpt lat="51.977987" lon="-1.904912"><ele>136.64</ele><time>2011-03-23T12:08:32Z</time></trkpt><trkpt lat="51.978020" lon="-1.904924"><ele>136.64</ele><time>2011-03-23T12:08:38Z</time></trkpt><trkpt lat="51.978061" lon="-1.904947"><ele>135.68</ele><time>2011-03-23T12:08:45Z</time></trkpt><trkpt lat="51.978097" lon="-1.904963"><ele>134.24</ele><time>2011-03-23T12:08:51Z</time></trkpt><trkpt lat="51.978130" lon="-1.904992"><ele>133.76</ele><time>2011-03-23T12:08:57Z</time></trkpt><trkpt lat="51.978149" lon="-1.905017"><ele>133.76</ele><time>2011-03-23T12:09:04Z</time></trkpt><trkpt lat="51.978210" lon="-1.905035"><ele>132.80</ele><time>2011-03-23T12:09:14Z</time></trkpt><trkpt lat="51.978239" lon="-1.905032"><ele>131.84</ele><time>2011-03-23T12:09:22Z</time></trkpt><trkpt lat="51.978316" lon="-1.905065"><ele>130.88</ele><time>2011-03-23T12:09:36Z</time></trkpt><trkpt lat="51.978352" lon="-1.905106"><ele>131.84</ele><time>2011-03-23T12:09:43Z</time></trkpt><trkpt lat="51.978386" lon="-1.905125"><ele>133.28</ele><time>2011-03-23T12:09:56Z</time></trkpt><trkpt lat="51.978464" lon="-1.905177"><ele>134.24</ele><time>2011-03-23T12:10:06Z</time></trkpt><trkpt lat="51.978555" lon="-1.905245"><ele>134.72</ele><time>2011-03-23T12:10:19Z</time></trkpt><trkpt lat="51.978648" lon="-1.905297"><ele>135.68</ele><time>2011-03-23T12:10:30Z</time></trkpt><trkpt lat="51.978721" lon="-1.905342"><ele>134.24</ele><time>2011-03-23T12:10:40Z</time></trkpt><trkpt lat="51.978763" lon="-1.905462"><ele>134.24</ele><time>2011-03-23T12:10:54Z</time></trkpt><trkpt lat="51.978795" lon="-1.905544"><ele>132.32</ele><time>2011-03-23T12:11:03Z</time></trkpt><trkpt lat="51.978835" lon="-1.905608"><ele>130.88</ele><time>2011-03-23T12:11:11Z</time></trkpt><trkpt lat="51.978874" lon="-1.905651"><ele>128.95</ele><time>2011-03-23T12:11:19Z</time></trkpt><trkpt lat="51.978909" lon="-1.905742"><ele>127.51</ele><time>2011-03-23T12:11:31Z</time></trkpt><trkpt lat="51.978942" lon="-1.905813"><ele>125.59</ele><time>2011-03-23T12:11:41Z</time></trkpt><trkpt lat="51.978962" lon="-1.905859"><ele>125.11</ele><time>2011-03-23T12:11:47Z</time></trkpt><trkpt lat="51.978982" lon="-1.905901"><ele>125.11</ele><time>2011-03-23T12:11:52Z</time></trkpt><trkpt lat="51.979011" lon="-1.905963"><ele>124.15</ele><time>2011-03-23T12:12:00Z</time></trkpt><trkpt lat="51.979055" lon="-1.906000"><ele>124.15</ele><time>2011-03-23T12:12:08Z</time></trkpt><trkpt lat="51.979109" lon="-1.906088"><ele>125.59</ele><time>2011-03-23T12:12:17Z</time></trkpt><trkpt lat="51.979165" lon="-1.906207"><ele>124.63</ele><time>2011-03-23T12:12:28Z</time></trkpt><trkpt lat="51.979254" lon="-1.906252"><ele>125.59</ele><time>2011-03-23T12:12:42Z</time></trkpt><trkpt lat="51.979293" lon="-1.906392"><ele>127.99</ele><time>2011-03-23T12:12:52Z</time></trkpt><trkpt lat="51.979353" lon="-1.906493"><ele>127.99</ele><time>2011-03-23T12:13:03Z</time></trkpt><trkpt lat="51.979425" lon="-1.906579"><ele>127.99</ele><time>2011-03-23T12:13:16Z</time></trkpt><trkpt lat="51.979464" lon="-1.906597"><ele>127.03</ele><time>2011-03-23T12:13:23Z</time></trkpt><trkpt lat="51.979503" lon="-1.906635"><ele>127.51</ele><time>2011-03-23T12:13:33Z</time></trkpt><trkpt lat="51.979524" lon="-1.906665"><ele>126.55</ele><time>2011-03-23T12:13:42Z</time></trkpt><trkpt lat="51.979538" lon="-1.906728"><ele>125.59</ele><time>2011-03-23T12:13:51Z</time></trkpt><trkpt lat="51.979565" lon="-1.906758"><ele>125.59</ele><time>2011-03-23T12:14:00Z</time></trkpt><trkpt lat="51.979589" lon="-1.906814"><ele>126.55</ele><time>2011-03-23T12:14:09Z</time></trkpt><trkpt lat="51.979598" lon="-1.906863"><ele>126.55</ele><time>2011-03-23T12:14:18Z</time></trkpt><trkpt lat="51.979630" lon="-1.906902"><ele>125.11</ele><time>2011-03-23T12:14:29Z</time></trkpt><trkpt lat="51.979664" lon="-1.906995"><ele>124.15</ele><time>2011-03-23T12:14:42Z</time></trkpt><trkpt lat="51.979686" lon="-1.907035"><ele>123.19</ele><time>2011-03-23T12:14:50Z</time></trkpt><trkpt lat="51.979711" lon="-1.907079"><ele>122.71</ele><time>2011-03-23T12:14:58Z</time></trkpt><trkpt lat="51.979736" lon="-1.907128"><ele>122.71</ele><time>2011-03-23T12:15:08Z</time></trkpt><trkpt lat="51.979803" lon="-1.907193"><ele>123.19</ele><time>2011-03-23T12:15:21Z</time></trkpt><trkpt lat="51.979840" lon="-1.907258"><ele>122.71</ele><time>2011-03-23T12:15:34Z</time></trkpt><trkpt lat="51.979852" lon="-1.907347"><ele>119.34</ele><time>2011-03-23T12:15:57Z</time></trkpt><trkpt lat="51.979861" lon="-1.907408"><ele>116.94</ele><time>2011-03-23T12:16:09Z</time></trkpt><trkpt lat="51.979867" lon="-1.907430"><ele>116.46</ele><time>2011-03-23T12:16:17Z</time></trkpt><trkpt lat="51.979840" lon="-1.907504"><ele>115.50</ele><time>2011-03-23T12:16:34Z</time></trkpt><trkpt lat="51.979823" lon="-1.907553"><ele>115.50</ele><time>2011-03-23T12:16:43Z</time></trkpt><trkpt lat="51.979818" lon="-1.907578"><ele>115.50</ele><time>2011-03-23T12:16:49Z</time></trkpt><trkpt lat="51.979807" lon="-1.907611"><ele>115.50</ele><time>2011-03-23T12:16:59Z</time></trkpt><trkpt lat="51.979816" lon="-1.907624"><ele>115.98</ele><time>2011-03-23T12:17:07Z</time></trkpt><trkpt lat="51.979827" lon="-1.907621"><ele>116.46</ele><time>2011-03-23T12:17:20Z</time></trkpt><trkpt lat="51.979811" lon="-1.907665"><ele>114.53</ele><time>2011-03-23T12:17:33Z</time></trkpt><trkpt lat="51.979816" lon="-1.907671"><ele>114.05</ele><time>2011-03-23T12:17:50Z</time></trkpt><trkpt lat="51.979819" lon="-1.907707"><ele>114.05</ele><time>2011-03-23T12:17:56Z</time></trkpt><trkpt lat="51.979827" lon="-1.907717"><ele>115.50</ele><time>2011-03-23T12:18:19Z</time></trkpt><trkpt lat="51.979834" lon="-1.907690"><ele>116.46</ele><time>2011-03-23T12:18:50Z</time></trkpt><trkpt lat="51.979822" lon="-1.907639"><ele>115.98</ele><time>2011-03-23T12:26:44Z</time></trkpt><trkpt lat="51.979822" lon="-1.907621"><ele>116.46</ele><time>2011-03-23T12:32:24Z</time></trkpt><trkpt lat="51.979821" lon="-1.907620"><ele>116.46</ele><time>2011-03-23T12:33:59Z</time></trkpt><trkpt lat="51.979820" lon="-1.907619"><ele>116.94</ele><time>2011-03-23T12:34:41Z</time></trkpt><trkpt lat="51.979828" lon="-1.907623"><ele>116.46</ele><time>2011-03-23T12:39:22Z</time></trkpt><trkpt lat="51.979830" lon="-1.907621"><ele>116.94</ele><time>2011-03-23T12:43:33Z</time></trkpt><trkpt lat="51.979829" lon="-1.907626"><ele>117.42</ele><time>2011-03-23T12:43:49Z</time></trkpt><trkpt lat="51.979811" lon="-1.907621"><ele>117.42</ele><time>2011-03-23T12:44:00Z</time></trkpt><trkpt lat="51.979793" lon="-1.907671"><ele>118.86</ele><time>2011-03-23T12:44:25Z</time></trkpt><trkpt lat="51.979766" lon="-1.907805"><ele>119.82</ele><time>2011-03-23T12:44:37Z</time></trkpt><trkpt lat="51.979755" lon="-1.907907"><ele>120.78</ele><time>2011-03-23T12:44:47Z</time></trkpt><trkpt lat="51.979761" lon="-1.908065"><ele>118.86</ele><time>2011-03-23T12:45:00Z</time></trkpt><trkpt lat="51.979749" lon="-1.908227"><ele>118.38</ele><time>2011-03-23T12:45:13Z</time></trkpt><trkpt lat="51.979728" lon="-1.908340"><ele>117.90</ele><time>2011-03-23T12:45:24Z</time></trkpt><trkpt lat="51.979719" lon="-1.908458"><ele>117.42</ele><time>2011-03-23T12:45:33Z</time></trkpt><trkpt lat="51.979720" lon="-1.908538"><ele>116.94</ele><time>2011-03-23T12:45:42Z</time></trkpt><trkpt lat="51.979728" lon="-1.908612"><ele>116.46</ele><time>2011-03-23T12:45:50Z</time></trkpt><trkpt lat="51.979732" lon="-1.908595"><ele>116.46</ele><time>2011-03-23T12:46:00Z</time></trkpt><trkpt lat="51.979718" lon="-1.908650"><ele>116.46</ele><time>2011-03-23T12:46:09Z</time></trkpt><trkpt lat="51.979713" lon="-1.908736"><ele>116.46</ele><time>2011-03-23T12:46:18Z</time></trkpt><trkpt lat="51.979717" lon="-1.908794"><ele>115.01</ele><time>2011-03-23T12:46:24Z</time></trkpt><trkpt lat="51.979720" lon="-1.908874"><ele>113.09</ele><time>2011-03-23T12:46:33Z</time></trkpt><trkpt lat="51.979735" lon="-1.908945"><ele>112.61</ele><time>2011-03-23T12:46:56Z</time></trkpt><trkpt lat="51.979762" lon="-1.909133"><ele>111.65</ele><time>2011-03-23T12:47:11Z</time></trkpt><trkpt lat="51.979777" lon="-1.909245"><ele>111.17</ele><time>2011-03-23T12:47:22Z</time></trkpt><trkpt lat="51.979790" lon="-1.909360"><ele>110.69</ele><time>2011-03-23T12:47:32Z</time></trkpt><trkpt lat="51.979794" lon="-1.909497"><ele>111.17</ele><time>2011-03-23T12:47:45Z</time></trkpt><trkpt lat="51.979784" lon="-1.909590"><ele>112.13</ele><time>2011-03-23T12:47:57Z</time></trkpt><trkpt lat="51.979794" lon="-1.909694"><ele>113.57</ele><time>2011-03-23T12:48:09Z</time></trkpt><trkpt lat="51.979774" lon="-1.909876"><ele>114.05</ele><time>2011-03-23T12:48:26Z</time></trkpt><trkpt lat="51.979756" lon="-1.909998"><ele>113.57</ele><time>2011-03-23T12:48:40Z</time></trkpt><trkpt lat="51.979767" lon="-1.910146"><ele>111.17</ele><time>2011-03-23T12:48:57Z</time></trkpt><trkpt lat="51.979766" lon="-1.910253"><ele>110.69</ele><time>2011-03-23T12:49:10Z</time></trkpt><trkpt lat="51.979770" lon="-1.910309"><ele>111.17</ele><time>2011-03-23T12:49:21Z</time></trkpt><trkpt lat="51.979769" lon="-1.910329"><ele>111.17</ele><time>2011-03-23T12:49:41Z</time></trkpt><trkpt lat="51.979783" lon="-1.910402"><ele>109.73</ele><time>2011-03-23T12:49:53Z</time></trkpt><trkpt lat="51.979780" lon="-1.910406"><ele>110.21</ele><time>2011-03-23T12:50:14Z</time></trkpt><trkpt lat="51.979778" lon="-1.910445"><ele>110.21</ele><time>2011-03-23T12:50:22Z</time></trkpt><trkpt lat="51.979783" lon="-1.910463"><ele>110.21</ele><time>2011-03-23T12:50:32Z</time></trkpt><trkpt lat="51.979797" lon="-1.910417"><ele>108.29</ele><time>2011-03-23T12:52:38Z</time></trkpt><trkpt lat="51.979821" lon="-1.910426"><ele>107.32</ele><time>2011-03-23T12:53:01Z</time></trkpt><trkpt lat="51.979821" lon="-1.910447"><ele>107.32</ele><time>2011-03-23T12:53:43Z</time></trkpt><trkpt lat="51.979847" lon="-1.910460"><ele>107.32</ele><time>2011-03-23T12:55:10Z</time></trkpt><trkpt lat="51.979849" lon="-1.910459"><ele>107.81</ele><time>2011-03-23T12:57:05Z</time></trkpt><trkpt lat="51.979844" lon="-1.910471"><ele>108.29</ele><time>2011-03-23T12:57:25Z</time></trkpt><trkpt lat="51.979842" lon="-1.910482"><ele>107.81</ele><time>2011-03-23T12:57:55Z</time></trkpt><trkpt lat="51.979836" lon="-1.910488"><ele>107.32</ele><time>2011-03-23T12:58:06Z</time></trkpt><trkpt lat="51.979842" lon="-1.910493"><ele>106.84</ele><time>2011-03-23T12:58:19Z</time></trkpt><trkpt lat="51.979855" lon="-1.910506"><ele>106.84</ele><time>2011-03-23T12:58:28Z</time></trkpt><trkpt lat="51.979868" lon="-1.910463"><ele>105.40</ele><time>2011-03-23T12:58:39Z</time></trkpt><trkpt lat="51.979870" lon="-1.910442"><ele>105.40</ele><time>2011-03-23T12:58:41Z</time></trkpt><trkpt lat="51.979850" lon="-1.910425"><ele>105.40</ele><time>2011-03-23T12:58:47Z</time></trkpt><trkpt lat="51.979847" lon="-1.910431"><ele>105.88</ele><time>2011-03-23T12:58:49Z</time></trkpt></trkseg></trk></gpx>